Wetterdaten: Mittwoch, 08.05.2019
Datum Zeit Temp. Aussen Temp. o. S. +5cm Feuchte Auss Luftdruck Regen Sonnenschein Regendauer Solar Windben Empfang
08.05.2019 00:00 6,3 C 5,0 C 3,9 C 81 % 1010,3 hPa 0,0 l/m 0 min 0 min 0 W/m 0,0 km/h (0 Bft) 100,00 %
08.05.2019 00:02 6,2 C 5,0 C 3,9 C 82 % 1010,3 hPa 0,0 l/m 0 min 0 min 0 W/m 0,0 km/h (0 Bft) 100,00 %
08.05.2019 00:04 6,2 C 5,0 C 3,9 C 82 % 1010,3 hPa 0,0 l/m 0 min 0 min 0 W/m 0,0 km/h (0 Bft) 95,74 %
08.05.2019 00:07 6,2 C 5,0 C 4,4 C 82 % 1010,3 hPa 0,0 l/m 0 min 0 min 0 W/m 0,0 km/h (0 Bft) 98,72 %
08.05.2019 00:08 6,2 C 5,0 C 4,4 C 82 % 1010,3 hPa 0,0 l/m 0 min 0 min 0 W/m 0,0 km/h (0 Bft) 91,67 %
08.05.2019 00:10 6,2 C 5,0 C 4,4 C 82 % 1010,3 hPa 0,0 l/m 0 min 0 min 0 W/m 0,0 km/h (0 Bft) 97,87 %
08.05.2019 00:12 6,1 C 5,0 C 4,4 C 82 % 1010,3 hPa 0,0 l/m 0 min 0 min 0 W/m 0,0 km/h (0 Bft) 97,83 %
08.05.2019 00:14 6,1 C 5,0 C 4,4 C 82 % 1010,2 hPa 0,0 l/m 0 min 0 min 0 W/m 0,0 km/h (0 Bft) 97,87 %
08.05.2019 00:16 6,1 C 5,0 C 4,4 C 83 % 1010,2 hPa 0,0 l/m 0 min 0 min 0 W/m 3,2 km/h (1 Bft) 97,87 %
08.05.2019 00:18 6,1 C 5,0 C 4,4 C 83 % 1010,2 hPa 0,0 l/m 0 min 0 min 0 W/m 0,0 km/h (0 Bft) 97,87 %
08.05.2019 00:20 6,1 C 5,0 C 4,4 C 83 % 1010,1 hPa 0,0 l/m 0 min 0 min 0 W/m 0,0 km/h (0 Bft) 95,74 %
08.05.2019 00:22 6,1 C 5,0 C 4,4 C 83 % 1010,1 hPa 0,0 l/m 0 min 0 min 0 W/m 0,0 km/h (0 Bft) 95,65 %
08.05.2019 00:24 6,0 C 5,0 C 4,4 C 84 % 1010,1 hPa 0,0 l/m 0 min 0 min 0 W/m 0,0 km/h (0 Bft) 100,00 %
08.05.2019 00:26 6,0 C 5,0 C 4,4 C 84 % 1010,0 hPa 0,0 l/m 0 min 0 min 0 W/m 0,0 km/h (0 Bft) 100,00 %
08.05.2019 00:28 6,0 C 5,6 C 5,0 C 84 % 1010,1 hPa 0,0 l/m 0 min 0 min 0 W/m 0,0 km/h (0 Bft) 100,00 %
08.05.2019 00:30 6,0 C 5,6 C 5,0 C 84 % 1010,1 hPa 0,0 l/m 0 min 0 min 0 W/m 0,0 km/h (0 Bft) 100,00 %
08.05.2019 00:32 6,0 C 5,6 C 5,0 C 85 % 1010,1 hPa 0,0 l/m 0 min 0 min 0 W/m 0,0 km/h (0 Bft) 97,87 %
08.05.2019 00:34 6,0 C 5,6 C 5,0 C 85 % 1010,0 hPa 0,0 l/m 0 min 0 min 0 W/m 0,0 km/h (0 Bft) 100,00 %
08.05.2019 00:36 6,0 C 5,6 C 5,0 C 85 % 1009,8 hPa 0,0 l/m 0 min 0 min 0 W/m 0,0 km/h (0 Bft) 98,04 %
08.05.2019 00:38 6,0 C 5,6 C 5,0 C 85 % 1009,7 hPa 0,0 l/m 0 min 0 min 0 W/m 0,0 km/h (0 Bft) 97,87 %
08.05.2019 00:40 6,0 C 5,6 C 5,0 C 85 % 1009,7 hPa 0,0 l/m 0 min 0 min 0 W/m 0,0 km/h (0 Bft) 97,87 %
08.05.2019 00:42 6,0 C 5,6 C 5,0 C 86 % 1009,6 hPa 0,0 l/m 0 min 0 min 0 W/m 0,0 km/h (0 Bft) 97,87 %
08.05.2019 00:44 6,0 C 5,6 C 5,0 C 86 % 1009,7 hPa 0,0 l/m 0 min 0 min 0 W/m 0,0 km/h (0 Bft) 97,87 %
08.05.2019 00:46 6,0 C 6,1 C 5,6 C 86 % 1009,7 hPa 0,0 l/m 0 min 0 min 0 W/m 3,2 km/h (1 Bft) 95,74 %
08.05.2019 00:48 6,1 C 6,1 C 5,6 C 86 % 1009,6 hPa 0,0 l/m 0 min 0 min 0 W/m 6,4 km/h (2 Bft) 97,87 %
08.05.2019 00:50 6,1 C 6,7 C 5,6 C 87 % 1009,6 hPa 0,0 l/m 0 min 0 min 0 W/m 3,2 km/h (1 Bft) 95,65 %
08.05.2019 00:52 6,1 C 6,7 C 5,6 C 87 % 1009,5 hPa 0,0 l/m 0 min 0 min 0 W/m 6,4 km/h (2 Bft) 95,74 %
08.05.2019 00:54 6,1 C 6,7 C 5,6 C 87 % 1009,5 hPa 0,0 l/m 0 min 0 min 0 W/m 3,2 km/h (1 Bft) 95,74 %
08.05.2019 00:56 6,1 C 6,7 C 5,6 C 87 % 1009,4 hPa 0,0 l/m 0 min 0 min 0 W/m 3,2 km/h (1 Bft) 93,62 %
08.05.2019 00:58 6,2 C 6,7 C 5,6 C 87 % 1009,4 hPa 0,0 l/m 0 min 0 min 0 W/m 3,2 km/h (1 Bft) 97,87 %
08.05.2019 01:00 6,2 C 6,7 C 5,6 C 87 % 1009,3 hPa 0,0 l/m 0 min 0 min 0 W/m 3,2 km/h (1 Bft) 95,65 %
08.05.2019 01:02 6,2 C 6,7 C 5,6 C 88 % 1009,3 hPa 0,0 l/m 0 min 0 min 0 W/m 3,2 km/h (1 Bft) 93,62 %
08.05.2019 01:04 6,2 C 6,7 C 5,6 C 88 % 1009,3 hPa 0,0 l/m 0 min 0 min 0 W/m 3,2 km/h (1 Bft) 95,74 %
08.05.2019 01:06 6,3 C 6,7 C 5,6 C 88 % 1009,3 hPa 0,0 l/m 0 min 0 min 0 W/m 3,2 km/h (1 Bft) 95,74 %
08.05.2019 01:08 6,3 C 7,2 C 6,1 C 88 % 1009,2 hPa 0,0 l/m 0 min 0 min 0 W/m 6,4 km/h (2 Bft) 95,74 %
08.05.2019 01:10 6,4 C 7,2 C 6,1 C 88 % 1009,2 hPa 0,0 l/m 0 min 0 min 0 W/m 6,4 km/h (2 Bft) 95,74 %
08.05.2019 01:12 6,4 C 7,2 C 6,1 C 88 % 1009,2 hPa 0,0 l/m 0 min 0 min 0 W/m 3,2 km/h (1 Bft) 95,65 %
08.05.2019 01:14 6,4 C 7,2 C 6,1 C 88 % 1009,1 hPa 0,0 l/m 0 min 0 min 0 W/m 3,2 km/h (1 Bft) 93,62 %
08.05.2019 01:16 6,4 C 7,2 C 6,1 C 88 % 1009,1 hPa 0,0 l/m 0 min 0 min 0 W/m 3,2 km/h (1 Bft) 93,62 %
08.05.2019 01:18 6,5 C 7,2 C 6,1 C 88 % 1009,0 hPa 0,0 l/m 0 min 0 min 0 W/m 6,4 km/h (2 Bft) 95,74 %
08.05.2019 01:20 6,6 C 7,2 C 6,1 C 88 % 1009,0 hPa 0,0 l/m 0 min 0 min 0 W/m 6,4 km/h (2 Bft) 93,62 %
08.05.2019 01:22 6,6 C 7,2 C 6,1 C 87 % 1009,0 hPa 0,0 l/m 0 min 0 min 0 W/m 6,4 km/h (2 Bft) 95,74 %
08.05.2019 01:24 6,6 C 7,2 C 6,1 C 88 % 1008,9 hPa 0,0 l/m 0 min 0 min 0 W/m 6,4 km/h (2 Bft) 97,78 %
08.05.2019 01:26 6,7 C 7,2 C 6,7 C 87 % 1008,9 hPa 0,0 l/m 0 min 0 min 0 W/m 6,4 km/h (2 Bft) 93,62 %
08.05.2019 01:28 6,7 C 7,2 C 6,7 C 87 % 1008,9 hPa 0,0 l/m 0 min 0 min 0 W/m 0,0 km/h (0 Bft) 95,74 %
08.05.2019 01:30 6,8 C 7,2 C 6,1 C 87 % 1008,8 hPa 0,0 l/m 0 min 0 min 0 W/m 0,0 km/h (0 Bft) 93,62 %
08.05.2019 01:32 6,8 C 7,2 C 6,1 C 87 % 1008,8 hPa 0,0 l/m 0 min 0 min 0 W/m 3,2 km/h (1 Bft) 95,74 %
08.05.2019 01:34 6,8 C 7,2 C 6,1 C 87 % 1008,8 hPa 0,0 l/m 0 min 0 min 0 W/m 0,0 km/h (0 Bft) 95,74 %
08.05.2019 01:36 6,9 C 7,2 C 6,1 C 87 % 1008,8 hPa 0,0 l/m 0 min 0 min 0 W/m 0,0 km/h (0 Bft) 95,65 %
08.05.2019 01:38 6,9 C 7,2 C 6,1 C 87 % 1008,8 hPa 0,0 l/m 0 min 0 min 0 W/m 3,2 km/h (1 Bft) 95,74 %
08.05.2019 01:40 6,9 C 7,2 C 6,1 C 87 % 1008,6 hPa 0,0 l/m 0 min 0 min 0 W/m 3,2 km/h (1 Bft) 95,74 %
08.05.2019 01:42 7,0 C 6,7 C 6,1 C 86 % 1008,6 hPa 0,0 l/m 0 min 0 min 0 W/m 3,2 km/h (1 Bft) 97,87 %
08.05.2019 01:44 7,0 C 6,7 C 6,1 C 86 % 1008,6 hPa 0,0 l/m 0 min 0 min 0 W/m 3,2 km/h (1 Bft) 100,00 %
08.05.2019 01:46 7,0 C 6,7 C 6,1 C 86 % 1008,5 hPa 0,0 l/m 0 min 0 min 0 W/m 3,2 km/h (1 Bft) 100,00 %
08.05.2019 01:48 7,1 C 7,2 C 6,1 C 86 % 1008,6 hPa 0,0 l/m 0 min 0 min 0 W/m 3,2 km/h (1 Bft) 100,00 %
08.05.2019 01:50 7,1 C 6,7 C 6,1 C 86 % 1008,6 hPa 0,0 l/m 0 min 0 min 0 W/m 0,0 km/h (0 Bft) 100,00 %
08.05.2019 01:52 7,1 C 6,7 C 6,1 C 86 % 1008,6 hPa 0,0 l/m 0 min 0 min 0 W/m 0,0 km/h (0 Bft) 100,00 %
08.05.2019 01:54 7,1 C 6,7 C 6,1 C 86 % 1008,5 hPa 0,0 l/m 0 min 0 min 0 W/m 9,7 km/h (2 Bft) 100,00 %
08.05.2019 01:56 7,2 C 7,2 C 6,1 C 86 % 1008,5 hPa 0,0 l/m 0 min 0 min 0 W/m 6,4 km/h (2 Bft) 100,00 %
08.05.2019 01:58 7,2 C 7,2 C 6,1 C 86 % 1008,4 hPa 0,0 l/m 0 min 0 min 0 W/m 0,0 km/h (0 Bft) 100,00 %
08.05.2019 02:00 7,2 C 6,7 C 6,1 C 85 % 1008,4 hPa 0,0 l/m 0 min 0 min 0 W/m 3,2 km/h (1 Bft) 97,87 %
08.05.2019 02:02 7,2 C 6,7 C 6,1 C 85 % 1008,4 hPa 0,0 l/m 0 min 0 min 0 W/m 0,0 km/h (0 Bft) 97,87 %
08.05.2019 02:04 7,2 C 7,2 C 6,1 C 85 % 1008,4 hPa 0,0 l/m 0 min 0 min 0 W/m 0,0 km/h (0 Bft) 97,87 %
08.05.2019 02:06 7,2 C 7,2 C 6,1 C 85 % 1008,5 hPa 0,0 l/m 0 min 0 min 0 W/m 3,2 km/h (1 Bft) 100,00 %
08.05.2019 02:08 7,2 C 7,2 C 6,1 C 85 % 1008,4 hPa 0,0 l/m 0 min 0 min 0 W/m 3,2 km/h (1 Bft) 97,87 %
08.05.2019 02:10 7,3 C 7,2 C 6,1 C 85 % 1008,4 hPa 0,0 l/m 0 min 0 min 0 W/m 3,2 km/h (1 Bft) 100,00 %
08.05.2019 02:12 7,3 C 7,2 C 6,1 C 85 % 1008,4 hPa 0,0 l/m 0 min 0 min 0 W/m 3,2 km/h (1 Bft) 100,00 %
08.05.2019 02:14 7,3 C 7,2 C 6,1 C 85 % 1008,4 hPa 0,0 l/m 0 min 0 min 0 W/m 6,4 km/h (2 Bft) 100,00 %
08.05.2019 02:16 7,3 C 7,2 C 6,1 C 84 % 1008,3 hPa 0,0 l/m 0 min 0 min 0 W/m 0,0 km/h (0 Bft) 100,00 %
08.05.2019 02:18 7,3 C 7,2 C 6,1 C 84 % 1008,2 hPa 0,0 l/m 0 min 0 min 0 W/m 3,2 km/h (1 Bft) 100,00 %
08.05.2019 02:20 7,3 C 7,2 C 6,1 C 84 % 1008,2 hPa 0,0 l/m 0 min 0 min 0 W/m 0,0 km/h (0 Bft) 97,87 %
08.05.2019 02:22 7,3 C 7,2 C 6,1 C 84 % 1008,2 hPa 0,0 l/m 0 min 0 min 0 W/m 0,0 km/h (0 Bft) 100,00 %
08.05.2019 02:24 7,3 C 6,7 C 6,1 C 84 % 1008,2 hPa 0,0 l/m 0 min 0 min 0 W/m 0,0 km/h (0 Bft) 97,87 %
08.05.2019 02:26 7,4 C 6,7 C 6,1 C 84 % 1008,1 hPa 0,0 l/m 0 min 0 min 0 W/m 0,0 km/h (0 Bft) 97,87 %
08.05.2019 02:28 7,4 C 6,7 C 6,1 C 84 % 1008,1 hPa 0,0 l/m 0 min 0 min 0 W/m 0,0 km/h (0 Bft) 95,74 %
08.05.2019 02:30 7,4 C 6,7 C 6,1 C 84 % 1008,1 hPa 0,0 l/m 0 min 0 min 0 W/m 6,4 km/h (2 Bft) 97,87 %
08.05.2019 02:32 7,4 C 7,2 C 6,1 C 84 % 1008,1 hPa 0,0 l/m 0 min 0 min 0 W/m 9,7 km/h (2 Bft) 97,87 %
08.05.2019 02:34 7,4 C 7,2 C 6,7 C 84 % 1008,0 hPa 0,0 l/m 0 min 0 min 0 W/m 9,7 km/h (2 Bft) 97,83 %
08.05.2019 02:36 7,4 C 7,2 C 6,7 C 83 % 1008,0 hPa 0,0 l/m 0 min 0 min 0 W/m 6,4 km/h (2 Bft) 97,87 %
08.05.2019 02:38 7,4 C 7,8 C 6,7 C 83 % 1008,0 hPa 0,0 l/m 0 min 0 min 0 W/m 6,4 km/h (2 Bft) 97,87 %
08.05.2019 02:40 7,4 C 7,8 C 6,7 C 83 % 1008,0 hPa 0,0 l/m 0 min 0 min 0 W/m 9,7 km/h (2 Bft) 95,74 %
08.05.2019 02:42 7,5 C 7,8 C 7,2 C 83 % 1008,0 hPa 0,0 l/m 0 min 0 min 0 W/m 12,9 km/h (3 Bft) 93,62 %
08.05.2019 02:44 7,5 C 7,8 C 6,7 C 82 % 1007,9 hPa 0,0 l/m 0 min 0 min 0 W/m 3,2 km/h (1 Bft) 97,87 %
08.05.2019 02:46 7,6 C 7,8 C 6,7 C 82 % 1007,9 hPa 0,0 l/m 0 min 0 min 0 W/m 6,4 km/h (2 Bft) 97,83 %
08.05.2019 02:48 7,6 C 7,8 C 6,7 C 82 % 1007,9 hPa 0,0 l/m 0 min 0 min 0 W/m 6,4 km/h (2 Bft) 97,87 %
08.05.2019 02:50 7,6 C 7,8 C 6,7 C 82 % 1007,8 hPa 0,0 l/m 0 min 0 min 0 W/m 6,4 km/h (2 Bft) 97,87 %
08.05.2019 02:52 7,6 C 7,8 C 6,7 C 82 % 1007,8 hPa 0,0 l/m 0 min 0 min 0 W/m 6,4 km/h (2 Bft) 97,87 %
08.05.2019 02:54 7,7 C 7,8 C 6,7 C 82 % 1007,7 hPa 0,0 l/m 0 min 0 min 0 W/m 12,9 km/h (3 Bft) 97,87 %
08.05.2019 02:56 7,7 C 7,8 C 7,2 C 82 % 1007,7 hPa 0,0 l/m 0 min 0 min 0 W/m 9,7 km/h (2 Bft) 95,65 %
08.05.2019 02:58 7,7 C 7,8 C 7,2 C 81 % 1007,5 hPa 0,0 l/m 0 min 0 min 0 W/m 9,7 km/h (2 Bft) 95,74 %
08.05.2019 03:00 7,8 C 7,8 C 7,2 C 81 % 1007,5 hPa 0,0 l/m 0 min 0 min 0 W/m 12,9 km/h (3 Bft) 97,87 %
08.05.2019 03:02 7,8 C 7,8 C 7,2 C 81 % 1007,5 hPa 0,0 l/m 0 min 0 min 0 W/m 12,9 km/h (3 Bft) 97,87 %
08.05.2019 03:04 7,8 C 7,8 C 7,2 C 80 % 1007,5 hPa 0,0 l/m 0 min 0 min 0 W/m 22,5 km/h (4 Bft) 95,74 %
08.05.2019 03:06 7,9 C 7,8 C 7,2 C 80 % 1007,5 hPa 0,0 l/m 0 min 0 min 0 W/m 9,7 km/h (2 Bft) 97,87 %
08.05.2019 03:08 7,9 C 7,8 C 7,2 C 80 % 1007,4 hPa 0,0 l/m 0 min 0 min 0 W/m 16,1 km/h (3 Bft) 97,83 %
08.05.2019 03:10 7,9 C 7,8 C 7,2 C 79 % 1007,5 hPa 0,0 l/m 0 min 0 min 0 W/m 16,1 km/h (3 Bft) 97,87 %
08.05.2019 03:12 8,0 C 7,8 C 7,2 C 79 % 1007,4 hPa 0,0 l/m 0 min 0 min 0 W/m 16,1 km/h (3 Bft) 97,87 %
08.05.2019 03:14 8,0 C 7,8 C 7,2 C 79 % 1007,4 hPa 0,0 l/m 0 min 0 min 0 W/m 9,7 km/h (2 Bft) 100,00 %
08.05.2019 03:16 8,1 C 7,8 C 7,2 C 79 % 1007,4 hPa 0,0 l/m 0 min 0 min 0 W/m 16,1 km/h (3 Bft) 100,00 %
08.05.2019 03:18 8,1 C 7,8 C 7,2 C 79 % 1007,3 hPa 0,0 l/m 0 min 0 min 0 W/m 9,7 km/h (2 Bft) 100,00 %
08.05.2019 03:20 8,1 C 7,8 C 7,2 C 78 % 1007,3 hPa 0,0 l/m 0 min 0 min 0 W/m 9,7 km/h (2 Bft) 97,83 %
08.05.2019 03:22 8,2 C 7,8 C 7,2 C 78 % 1007,3 hPa 0,0 l/m 0 min 0 min 0 W/m 12,9 km/h (3 Bft) 95,74 %
08.05.2019 03:24 8,2 C 7,8 C 7,2 C 78 % 1007,3 hPa 0,0 l/m 0 min 0 min 0 W/m 9,7 km/h (2 Bft) 97,87 %
08.05.2019 03:26 8,2 C 7,8 C 7,2 C 78 % 1007,2 hPa 0,0 l/m 0 min 0 min 0 W/m 9,7 km/h (2 Bft) 100,00 %
08.05.2019 03:28 8,2 C 7,8 C 7,2 C 78 % 1007,3 hPa 0,0 l/m 0 min 0 min 0 W/m 6,4 km/h (2 Bft) 100,00 %
08.05.2019 03:30 8,2 C 7,8 C 7,2 C 78 % 1007,2 hPa 0,0 l/m 0 min 0 min 0 W/m 9,7 km/h (2 Bft) 93,62 %
08.05.2019 03:32 8,2 C 7,8 C 7,2 C 78 % 1007,3 hPa 0,0 l/m 0 min 0 min 0 W/m 12,9 km/h (3 Bft) 97,83 %
08.05.2019 03:34 8,2 C 7,8 C 7,2 C 78 % 1007,3 hPa 0,0 l/m 0 min 0 min 0 W/m 9,7 km/h (2 Bft) 97,87 %
08.05.2019 03:36 8,2 C 7,8 C 7,2 C 78 % 1007,2 hPa 0,0 l/m 0 min 0 min 0 W/m 12,9 km/h (3 Bft) 97,87 %
08.05.2019 03:38 8,3 C 7,8 C 7,2 C 78 % 1007,2 hPa 0,0 l/m 0 min 0 min 0 W/m 9,7 km/h (2 Bft) 97,87 %
08.05.2019 03:40 8,3 C 7,8 C 7,2 C 78 % 1007,2 hPa 0,0 l/m 0 min 0 min 0 W/m 6,4 km/h (2 Bft) 97,87 %
08.05.2019 03:42 8,3 C 7,8 C 7,2 C 78 % 1007,2 hPa 0,0 l/m 0 min 0 min 0 W/m 9,7 km/h (2 Bft) 95,74 %
08.05.2019 03:44 8,3 C 7,8 C 7,2 C 78 % 1007,1 hPa 0,0 l/m 0 min 0 min 0 W/m 9,7 km/h (2 Bft) 97,83 %
08.05.2019 03:46 8,3 C 7,8 C 7,2 C 78 % 1007,0 hPa 0,0 l/m 0 min 0 min 0 W/m 12,9 km/h (3 Bft) 97,87 %
08.05.2019 03:48 8,3 C 7,2 C 7,2 C 78 % 1007,0 hPa 0,0 l/m 0 min 0 min 0 W/m 6,4 km/h (2 Bft) 97,87 %
08.05.2019 03:50 8,3 C 7,2 C 6,7 C 78 % 1007,0 hPa 0,0 l/m 0 min 0 min 0 W/m 9,7 km/h (2 Bft) 97,87 %
08.05.2019 03:52 8,2 C 7,2 C 6,7 C 78 % 1006,9 hPa 0,0 l/m 0 min 0 min 0 W/m 9,7 km/h (2 Bft) 97,87 %
08.05.2019 03:54 8,2 C 7,2 C 6,7 C 78 % 1006,9 hPa 0,0 l/m 0 min 0 min 0 W/m 6,4 km/h (2 Bft) 97,87 %
08.05.2019 03:56 8,2 C 7,2 C 7,2 C 78 % 1006,9 hPa 0,0 l/m 0 min 0 min 0 W/m 12,9 km/h (3 Bft) 97,83 %
08.05.2019 03:58 8,2 C 7,2 C 6,7 C 78 % 1006,8 hPa 0,0 l/m 0 min 0 min 0 W/m 9,7 km/h (2 Bft) 97,87 %
08.05.2019 04:00 8,2 C 7,2 C 6,7 C 78 % 1006,8 hPa 0,0 l/m 0 min 0 min 0 W/m 9,7 km/h (2 Bft) 95,74 %
08.05.2019 04:02 8,2 C 7,2 C 6,7 C 78 % 1006,7 hPa 0,0 l/m 0 min 0 min 0 W/m 12,9 km/h (3 Bft) 100,00 %
08.05.2019 04:04 8,2 C 7,2 C 6,7 C 78 % 1006,6 hPa 0,0 l/m 0 min 0 min 0 W/m 9,7 km/h (2 Bft) 100,00 %
08.05.2019 04:06 8,2 C 7,2 C 6,7 C 78 % 1006,5 hPa 0,0 l/m 0 min 0 min 0 W/m 12,9 km/h (3 Bft) 97,87 %
08.05.2019 04:08 8,2 C 7,2 C 6,7 C 78 % 1006,4 hPa 0,0 l/m 0 min 0 min 0 W/m 9,7 km/h (2 Bft) 95,65 %
08.05.2019 04:10 8,2 C 7,2 C 6,7 C 78 % 1006,4 hPa 0,0 l/m 0 min 0 min 0 W/m 12,9 km/h (3 Bft) 97,87 %
08.05.2019 04:12 8,2 C 7,2 C 6,7 C 78 % 1006,4 hPa 0,0 l/m 0 min 0 min 0 W/m 9,7 km/h (2 Bft) 97,87 %
08.05.2019 04:14 8,1 C 7,2 C 6,7 C 78 % 1006,3 hPa 0,0 l/m 0 min 0 min 0 W/m 9,7 km/h (2 Bft) 100,00 %
08.05.2019 04:16 8,1 C 7,2 C 6,7 C 78 % 1006,2 hPa 0,0 l/m 0 min 0 min 0 W/m 16,1 km/h (3 Bft) 100,00 %
08.05.2019 04:18 8,1 C 7,2 C 6,7 C 78 % 1006,1 hPa 0,0 l/m 0 min 0 min 0 W/m 12,9 km/h (3 Bft) 97,83 %
08.05.2019 04:20 8,1 C 7,2 C 6,7 C 78 % 1006,1 hPa 0,0 l/m 0 min 0 min 0 W/m 9,7 km/h (2 Bft) 93,62 %
08.05.2019 04:22 8,1 C 7,2 C 6,7 C 78 % 1006,1 hPa 0,0 l/m 0 min 0 min 0 W/m 6,4 km/h (2 Bft) 97,87 %
08.05.2019 04:24 8,1 C 7,2 C 6,7 C 78 % 1006,0 hPa 0,0 l/m 0 min 0 min 0 W/m 6,4 km/h (2 Bft) 97,87 %
08.05.2019 04:26 8,1 C 7,2 C 6,7 C 78 % 1006,0 hPa 0,0 l/m 0 min 0 min 0 W/m 6,4 km/h (2 Bft) 97,87 %
08.05.2019 04:28 8,1 C 7,2 C 6,7 C 78 % 1006,1 hPa 0,0 l/m 0 min 0 min 0 W/m 9,7 km/h (2 Bft) 95,74 %
08.05.2019 04:30 8,1 C 7,2 C 6,7 C 78 % 1006,0 hPa 0,0 l/m 0 min 0 min 0 W/m 3,2 km/h (1 Bft) 97,83 %
08.05.2019 04:32 8,1 C 7,2 C 6,7 C 78 % 1006,0 hPa 0,0 l/m 0 min 0 min 0 W/m 6,4 km/h (2 Bft) 97,87 %
08.05.2019 04:34 8,0 C 7,2 C 6,7 C 78 % 1005,9 hPa 0,0 l/m 0 min 0 min 0 W/m 3,2 km/h (1 Bft) 97,87 %
08.05.2019 04:36 8,0 C 7,2 C 6,7 C 78 % 1005,9 hPa 0,0 l/m 0 min 0 min 0 W/m 6,4 km/h (2 Bft) 97,87 %
08.05.2019 04:38 8,0 C 6,7 C 6,1 C 78 % 1005,9 hPa 0,0 l/m 0 min 0 min 0 W/m 3,2 km/h (1 Bft) 100,00 %
08.05.2019 04:40 8,0 C 6,7 C 6,1 C 78 % 1005,9 hPa 0,0 l/m 0 min 0 min 0 W/m 3,2 km/h (1 Bft) 97,87 %
08.05.2019 04:42 7,9 C 6,7 C 6,1 C 79 % 1005,8 hPa 0,0 l/m 0 min 0 min 0 W/m 3,2 km/h (1 Bft) 95,65 %
08.05.2019 04:44 7,9 C 6,7 C 6,1 C 79 % 1005,7 hPa 0,0 l/m 0 min 0 min 0 W/m 6,4 km/h (2 Bft) 97,87 %
08.05.2019 04:46 7,9 C 6,7 C 6,1 C 79 % 1005,6 hPa 0,0 l/m 0 min 0 min 0 W/m 3,2 km/h (1 Bft) 97,87 %
08.05.2019 04:48 7,9 C 6,7 C 6,1 C 79 % 1005,6 hPa 0,0 l/m 0 min 0 min 0 W/m 6,4 km/h (2 Bft) 97,87 %
08.05.2019 04:50 7,9 C 6,7 C 6,1 C 79 % 1005,6 hPa 0,0 l/m 0 min 0 min 0 W/m 6,4 km/h (2 Bft) 97,87 %
08.05.2019 04:52 7,9 C 7,2 C 6,1 C 79 % 1005,5 hPa 0,0 l/m 0 min 0 min 0 W/m 9,7 km/h (2 Bft) 97,87 %
08.05.2019 04:54 7,9 C 7,2 C 6,1 C 79 % 1005,5 hPa 0,0 l/m 0 min 0 min 0 W/m 6,4 km/h (2 Bft) 97,83 %
08.05.2019 04:56 7,8 C 7,2 C 6,1 C 80 % 1005,5 hPa 0,0 l/m 0 min 0 min 0 W/m 6,4 km/h (2 Bft) 97,87 %
08.05.2019 04:58 7,8 C 7,2 C 6,1 C 80 % 1005,5 hPa 0,0 l/m 0 min 0 min 0 W/m 6,4 km/h (2 Bft) 97,87 %
08.05.2019 05:00 7,8 C 7,2 C 6,1 C 80 % 1005,4 hPa 0,0 l/m 0 min 0 min 0 W/m 6,4 km/h (2 Bft) 97,87 %
08.05.2019 05:02 7,8 C 7,2 C 6,1 C 80 % 1005,3 hPa 0,0 l/m 0 min 0 min 0 W/m 3,2 km/h (1 Bft) 97,87 %
08.05.2019 05:04 7,8 C 7,2 C 6,1 C 80 % 1005,3 hPa 0,0 l/m 0 min 0 min 0 W/m 6,4 km/h (2 Bft) 97,87 %
08.05.2019 05:05 7,8 C 7,2 C 6,1 C 80 % 1005,3 hPa 0,0 l/m 0 min 0 min 0 W/m 6,4 km/h (2 Bft) 100,00 %
08.05.2019 05:10 7,7 C 7,2 C 6,7 C 80 % 1005,2 hPa 0,0 l/m 0 min 0 min 0 W/m 6,4 km/h (2 Bft) 99,12 %
08.05.2019 05:12 7,7 C 7,2 C 6,1 C 80 % 1005,2 hPa 0,0 l/m 0 min 0 min 0 W/m 9,7 km/h (2 Bft) 94,12 %
08.05.2019 05:14 7,7 C 7,2 C 6,1 C 80 % 1005,1 hPa 0,0 l/m 0 min 0 min 0 W/m 6,4 km/h (2 Bft) 87,23 %
08.05.2019 05:16 7,7 C 7,2 C 6,1 C 80 % 1005,1 hPa 0,0 l/m 0 min 0 min 0 W/m 6,4 km/h (2 Bft) 92,31 %
08.05.2019 05:18 7,7 C 7,2 C 6,1 C 80 % 1005,0 hPa 0,0 l/m 0 min 0 min 0 W/m 3,2 km/h (1 Bft) 97,92 %
08.05.2019 05:20 7,7 C 7,2 C 6,1 C 80 % 1005,0 hPa 0,0 l/m 0 min 0 min 0 W/m 6,4 km/h (2 Bft) 97,92 %
08.05.2019 05:22 7,7 C 7,2 C 6,1 C 80 % 1005,0 hPa 0,0 l/m 0 min 0 min 0 W/m 3,2 km/h (1 Bft) 97,83 %
08.05.2019 05:24 7,7 C 7,2 C 6,1 C 80 % 1005,0 hPa 0,0 l/m 0 min 0 min 0 W/m 6,4 km/h (2 Bft) 95,74 %
08.05.2019 05:26 7,7 C 7,2 C 6,1 C 80 % 1005,0 hPa 0,0 l/m 0 min 0 min 0 W/m 6,4 km/h (2 Bft) 97,87 %
08.05.2019 05:28 7,7 C 7,2 C 6,1 C 80 % 1004,9 hPa 0,0 l/m 0 min 0 min 0 W/m 6,4 km/h (2 Bft) 97,87 %
08.05.2019 05:30 7,7 C 7,2 C 6,1 C 80 % 1004,9 hPa 0,0 l/m 0 min 0 min 0 W/m 6,4 km/h (2 Bft) 97,87 %
08.05.2019 05:32 7,7 C 7,2 C 6,1 C 80 % 1004,9 hPa 0,0 l/m 0 min 0 min 0 W/m 12,9 km/h (3 Bft) 95,74 %
08.05.2019 05:34 7,7 C 7,2 C 6,1 C 80 % 1004,8 hPa 0,0 l/m 0 min 0 min 0 W/m 6,4 km/h (2 Bft) 97,83 %
08.05.2019 05:36 7,7 C 7,2 C 6,1 C 80 % 1004,7 hPa 0,0 l/m 0 min 0 min 0 W/m 9,7 km/h (2 Bft) 97,87 %
08.05.2019 05:38 7,7 C 7,2 C 6,1 C 80 % 1004,7 hPa 0,0 l/m 0 min 0 min 0 W/m 6,4 km/h (2 Bft) 97,87 %
08.05.2019 05:40 7,7 C 7,2 C 6,7 C 80 % 1004,7 hPa 0,0 l/m 0 min 0 min 0 W/m 6,4 km/h (2 Bft) 97,87 %
08.05.2019 05:42 7,7 C 7,2 C 6,7 C 80 % 1004,7 hPa 0,0 l/m 0 min 0 min 0 W/m 6,4 km/h (2 Bft) 97,87 %
08.05.2019 05:44 7,7 C 7,2 C 6,1 C 80 % 1004,7 hPa 0,0 l/m 0 min 0 min 0 W/m 6,4 km/h (2 Bft) 97,87 %
08.05.2019 05:46 7,7 C 7,2 C 6,1 C 80 % 1004,6 hPa 0,0 l/m 0 min 0 min 0 W/m 6,4 km/h (2 Bft) 97,83 %
08.05.2019 05:48 7,7 C 7,2 C 6,7 C 80 % 1004,6 hPa 0,0 l/m 0 min 0 min 0 W/m 6,4 km/h (2 Bft) 95,74 %
08.05.2019 05:50 7,7 C 7,2 C 6,7 C 80 % 1004,6 hPa 0,0 l/m 0 min 0 min 0 W/m 9,7 km/h (2 Bft) 97,87 %
08.05.2019 05:52 7,7 C 7,2 C 6,7 C 80 % 1004,5 hPa 0,0 l/m 0 min 0 min 0 W/m 6,4 km/h (2 Bft) 97,87 %
08.05.2019 05:54 7,7 C 7,2 C 6,7 C 79 % 1004,5 hPa 0,0 l/m 0 min 0 min 0 W/m 6,4 km/h (2 Bft) 97,87 %
08.05.2019 05:56 7,7 C 7,2 C 6,7 C 79 % 1004,5 hPa 0,0 l/m 0 min 0 min 0 W/m 9,7 km/h (2 Bft) 93,62 %
08.05.2019 05:58 7,7 C 7,2 C 6,7 C 79 % 1004,5 hPa 0,0 l/m 0 min 0 min 0 W/m 6,4 km/h (2 Bft) 97,83 %
08.05.2019 06:00 7,7 C 7,2 C 6,7 C 79 % 1004,4 hPa 0,0 l/m 0 min 0 min 0 W/m 6,4 km/h (2 Bft) 97,87 %
08.05.2019 06:02 7,7 C 7,2 C 6,7 C 79 % 1004,4 hPa 0,0 l/m 0 min 0 min 0 W/m 9,7 km/h (2 Bft) 97,87 %
08.05.2019 06:04 7,7 C 7,2 C 6,7 C 79 % 1004,4 hPa 0,0 l/m 0 min 0 min 5 W/m 6,4 km/h (2 Bft) 97,87 %
08.05.2019 06:07 7,7 C 7,2 C 6,7 C 79 % 1004,4 hPa 0,0 l/m 0 min 0 min 6 W/m 9,7 km/h (2 Bft) 98,57 %
08.05.2019 06:08 7,7 C 7,2 C 6,7 C 79 % 1004,4 hPa 0,0 l/m 0 min 0 min 7 W/m 12,9 km/h (3 Bft) 100,00 %
08.05.2019 06:10 7,7 C 7,2 C 6,7 C 79 % 1004,3 hPa 0,0 l/m 0 min 0 min 7 W/m 9,7 km/h (2 Bft) 97,83 %
08.05.2019 06:12 7,7 C 7,2 C 6,7 C 79 % 1004,3 hPa 0,0 l/m 0 min 0 min 9 W/m 16,1 km/h (3 Bft) 95,74 %
08.05.2019 06:14 7,7 C 7,2 C 6,7 C 79 % 1004,3 hPa 0,0 l/m 0 min 0 min 11 W/m 12,9 km/h (3 Bft) 95,74 %
08.05.2019 06:16 7,7 C 7,2 C 6,7 C 78 % 1004,3 hPa 0,0 l/m 0 min 0 min 12 W/m 9,7 km/h (2 Bft) 97,87 %
08.05.2019 06:18 7,7 C 7,2 C 6,7 C 78 % 1004,2 hPa 0,0 l/m 0 min 0 min 12 W/m 12,9 km/h (3 Bft) 97,87 %
08.05.2019 06:20 7,8 C 7,2 C 7,2 C 78 % 1004,3 hPa 0,0 l/m 0 min 0 min 13 W/m 9,7 km/h (2 Bft) 97,83 %
08.05.2019 06:22 7,8 C 7,2 C 7,2 C 78 % 1004,3 hPa 0,0 l/m 0 min 0 min 14 W/m 6,4 km/h (2 Bft) 97,87 %
08.05.2019 06:24 7,8 C 7,2 C 6,7 C 78 % 1004,2 hPa 0,0 l/m 0 min 0 min 16 W/m 9,7 km/h (2 Bft) 97,87 %
08.05.2019 06:26 7,8 C 7,2 C 6,7 C 78 % 1004,2 hPa 0,0 l/m 0 min 0 min 18 W/m 6,4 km/h (2 Bft) 97,87 %
08.05.2019 06:28 7,8 C 7,2 C 6,7 C 78 % 1004,1 hPa 0,0 l/m 0 min 0 min 19 W/m 6,4 km/h (2 Bft) 95,74 %
08.05.2019 06:30 7,8 C 7,2 C 6,7 C 78 % 1004,1 hPa 0,0 l/m 0 min 0 min 21 W/m 9,7 km/h (2 Bft) 97,87 %
08.05.2019 06:32 7,8 C 7,2 C 6,7 C 78 % 1004,0 hPa 0,0 l/m 0 min 0 min 21 W/m 6,4 km/h (2 Bft) 97,83 %
08.05.2019 06:34 7,8 C 7,2 C 6,7 C 78 % 1004,0 hPa 0,0 l/m 0 min 0 min 21 W/m 6,4 km/h (2 Bft) 97,87 %
08.05.2019 06:36 7,8 C 7,8 C 7,2 C 78 % 1004,0 hPa 0,0 l/m 0 min 0 min 21 W/m 9,7 km/h (2 Bft) 97,87 %
08.05.2019 06:38 7,9 C 7,8 C 7,2 C 78 % 1003,9 hPa 0,0 l/m 0 min 0 min 19 W/m 12,9 km/h (3 Bft) 97,87 %
08.05.2019 06:40 7,9 C 7,8 C 7,2 C 78 % 1004,0 hPa 0,0 l/m 0 min 0 min 18 W/m 6,4 km/h (2 Bft) 97,87 %
08.05.2019 06:42 7,9 C 7,8 C 7,2 C 78 % 1004,0 hPa 0,0 l/m 0 min 0 min 16 W/m 9,7 km/h (2 Bft) 97,87 %
08.05.2019 06:44 7,9 C 7,8 C 7,2 C 78 % 1003,9 hPa 0,0 l/m 0 min 0 min 16 W/m 9,7 km/h (2 Bft) 95,65 %
08.05.2019 06:46 7,9 C 7,8 C 7,2 C 78 % 1003,8 hPa 0,0 l/m 0 min 0 min 16 W/m 9,7 km/h (2 Bft) 97,87 %
08.05.2019 06:48 7,9 C 7,8 C 7,2 C 78 % 1003,8 hPa 0,0 l/m 0 min 0 min 18 W/m 9,7 km/h (2 Bft) 97,87 %
08.05.2019 06:50 7,9 C 7,8 C 7,2 C 78 % 1003,8 hPa 0,0 l/m 0 min 0 min 19 W/m 9,7 km/h (2 Bft) 97,87 %
08.05.2019 06:52 7,9 C 7,8 C 7,2 C 78 % 1003,7 hPa 0,0 l/m 0 min 0 min 22 W/m 6,4 km/h (2 Bft) 97,87 %
08.05.2019 06:54 7,9 C 7,8 C 7,2 C 78 % 1003,7 hPa 0,0 l/m 0 min 0 min 24 W/m 9,7 km/h (2 Bft) 95,74 %
08.05.2019 06:56 8,0 C 7,8 C 7,2 C 78 % 1003,6 hPa 0,0 l/m 0 min 0 min 26 W/m 16,1 km/h (3 Bft) 100,00 %
08.05.2019 06:58 8,0 C 7,8 C 7,2 C 78 % 1003,6 hPa 0,0 l/m 0 min 0 min 29 W/m 9,7 km/h (2 Bft) 100,00 %
08.05.2019 07:00 8,0 C 7,8 C 7,2 C 78 % 1003,5 hPa 0,0 l/m 0 min 0 min 31 W/m 9,7 km/h (2 Bft) 97,87 %
08.05.2019 07:02 8,0 C 7,8 C 7,2 C 78 % 1003,4 hPa 0,0 l/m 0 min 0 min 33 W/m 16,1 km/h (3 Bft) 100,00 %
08.05.2019 07:04 8,1 C 7,8 C 7,2 C 77 % 1003,3 hPa 0,0 l/m 0 min 0 min 37 W/m 9,7 km/h (2 Bft) 100,00 %
08.05.2019 07:06 8,1 C 7,8 C 7,2 C 78 % 1003,3 hPa 0,0 l/m 0 min 0 min 41 W/m 9,7 km/h (2 Bft) 97,87 %
08.05.2019 07:08 8,1 C 7,8 C 7,2 C 78 % 1003,3 hPa 0,0 l/m 0 min 0 min 44 W/m 9,7 km/h (2 Bft) 100,00 %
08.05.2019 07:10 8,1 C 8,3 C 7,8 C 77 % 1003,3 hPa 0,0 l/m 0 min 0 min 46 W/m 9,7 km/h (2 Bft) 100,00 %
08.05.2019 07:12 8,1 C 8,3 C 7,8 C 77 % 1003,2 hPa 0,0 l/m 0 min 0 min 48 W/m 9,7 km/h (2 Bft) 100,00 %
08.05.2019 07:14 8,2 C 8,3 C 7,8 C 77 % 1003,2 hPa 0,0 l/m 0 min 0 min 50 W/m 16,1 km/h (3 Bft) 100,00 %
08.05.2019 07:16 8,2 C 8,3 C 7,8 C 77 % 1003,2 hPa 0,0 l/m 0 min 0 min 52 W/m 9,7 km/h (2 Bft) 97,87 %
08.05.2019 07:18 8,2 C 8,3 C 7,8 C 77 % 1003,1 hPa 0,0 l/m 0 min 0 min 50 W/m 9,7 km/h (2 Bft) 97,87 %
08.05.2019 07:20 8,2 C 8,3 C 7,8 C 77 % 1003,1 hPa 0,0 l/m 0 min 0 min 48 W/m 16,1 km/h (3 Bft) 100,00 %
08.05.2019 07:22 8,3 C 8,3 C 7,8 C 77 % 1003,0 hPa 0,0 l/m 0 min 0 min 44 W/m 9,7 km/h (2 Bft) 97,87 %
08.05.2019 07:24 8,3 C 8,3 C 7,8 C 77 % 1003,0 hPa 0,0 l/m 0 min 0 min 42 W/m 12,9 km/h (3 Bft) 97,87 %
08.05.2019 07:26 8,3 C 8,3 C 7,8 C 76 % 1003,0 hPa 0,0 l/m 0 min 0 min 44 W/m 16,1 km/h (3 Bft) 100,00 %
08.05.2019 07:28 8,4 C 8,3 C 7,8 C 76 % 1002,9 hPa 0,0 l/m 0 min 0 min 50 W/m 12,9 km/h (3 Bft) 100,00 %
08.05.2019 07:30 8,4 C 8,3 C 7,8 C 76 % 1002,9 hPa 0,0 l/m 0 min 0 min 60 W/m 16,1 km/h (3 Bft) 100,00 %
08.05.2019 07:32 8,4 C 8,3 C 8,3 C 76 % 1002,9 hPa 0,0 l/m 0 min 0 min 69 W/m 19,3 km/h (3 Bft) 100,00 %
08.05.2019 07:34 8,5 C 8,9 C 8,3 C 76 % 1002,8 hPa 0,0 l/m 0 min 0 min 74 W/m 12,9 km/h (3 Bft) 100,00 %
08.05.2019 07:36 8,6 C 8,9 C 8,3 C 76 % 1002,8 hPa 0,0 l/m 0 min 0 min 75 W/m 16,1 km/h (3 Bft) 97,87 %
08.05.2019 07:38 8,6 C 8,9 C 8,3 C 76 % 1002,8 hPa 0,0 l/m 0 min 0 min 72 W/m 12,9 km/h (3 Bft) 100,00 %
08.05.2019 07:40 8,6 C 8,9 C 8,3 C 76 % 1002,8 hPa 0,0 l/m 0 min 0 min 68 W/m 12,9 km/h (3 Bft) 97,87 %
08.05.2019 07:42 8,7 C 8,9 C 8,3 C 76 % 1002,7 hPa 0,0 l/m 0 min 0 min 62 W/m 9,7 km/h (2 Bft) 100,00 %
08.05.2019 07:44 8,7 C 8,9 C 8,3 C 76 % 1002,7 hPa 0,0 l/m 0 min 0 min 58 W/m 12,9 km/h (3 Bft) 100,00 %
08.05.2019 07:46 8,7 C 8,9 C 8,3 C 75 % 1002,7 hPa 0,0 l/m 0 min 0 min 56 W/m 9,7 km/h (2 Bft) 97,87 %
08.05.2019 07:48 8,7 C 8,9 C 8,3 C 75 % 1002,7 hPa 0,0 l/m 0 min 0 min 54 W/m 12,9 km/h (3 Bft) 100,00 %
08.05.2019 07:50 8,8 C 8,9 C 8,3 C 75 % 1002,7 hPa 0,0 l/m 0 min 0 min 54 W/m 12,9 km/h (3 Bft) 95,74 %
08.05.2019 07:52 8,8 C 8,9 C 8,3 C 75 % 1002,7 hPa 0,0 l/m 0 min 0 min 54 W/m 12,9 km/h (3 Bft) 97,87 %
08.05.2019 07:54 8,8 C 8,9 C 8,3 C 75 % 1002,7 hPa 0,0 l/m 0 min 0 min 54 W/m 12,9 km/h (3 Bft) 95,65 %
08.05.2019 07:56 8,9 C 8,9 C 8,3 C 75 % 1002,7 hPa 0,0 l/m 0 min 0 min 54 W/m 9,7 km/h (2 Bft) 95,74 %
08.05.2019 07:58 8,9 C 8,9 C 8,3 C 75 % 1002,7 hPa 0,0 l/m 0 min 0 min 56 W/m 12,9 km/h (3 Bft) 95,74 %
08.05.2019 08:00 8,9 C 8,9 C 8,3 C 75 % 1002,6 hPa 0,0 l/m 0 min 0 min 53 W/m 16,1 km/h (3 Bft) 95,74 %
08.05.2019 08:02 8,9 C 8,9 C 8,3 C 75 % 1002,7 hPa 0,0 l/m 0 min 0 min 49 W/m 19,3 km/h (3 Bft) 95,74 %
08.05.2019 08:04 8,9 C 8,9 C 8,3 C 74 % 1002,7 hPa 0,0 l/m 0 min 0 min 53 W/m 12,9 km/h (3 Bft) 95,74 %
08.05.2019 08:06 8,9 C 8,9 C 8,3 C 74 % 1002,6 hPa 0,0 l/m 0 min 0 min 61 W/m 16,1 km/h (3 Bft) 95,65 %
08.05.2019 08:08 9,0 C 8,9 C 8,3 C 74 % 1002,7 hPa 0,0 l/m 0 min 0 min 69 W/m 12,9 km/h (3 Bft) 93,62 %
08.05.2019 08:10 9,0 C 8,9 C 8,3 C 74 % 1002,6 hPa 0,0 l/m 0 min 2 min 74 W/m 29,0 km/h (5 Bft) 95,74 %
08.05.2019 08:12 9,0 C 8,3 C 7,8 C 74 % 1002,5 hPa 0,0 l/m 0 min 0 min 78 W/m 22,5 km/h (4 Bft) 95,74 %
08.05.2019 08:14 9,0 C 8,9 C 8,3 C 75 % 1002,5 hPa 0,0 l/m 0 min 0 min 82 W/m 19,3 km/h (3 Bft) 91,49 %
08.05.2019 08:16 9,0 C 8,3 C 8,3 C 75 % 1002,5 hPa 0,0 l/m 0 min 2 min 84 W/m 16,1 km/h (3 Bft) 95,74 %
08.05.2019 08:18 9,0 C 8,3 C 8,3 C 75 % 1002,5 hPa 0,0 l/m 0 min 2 min 84 W/m 22,5 km/h (4 Bft) 95,65 %
08.05.2019 08:20 9,0 C 8,3 C 7,8 C 75 % 1002,5 hPa 0,0 l/m 0 min 0 min 80 W/m 16,1 km/h (3 Bft) 95,74 %
08.05.2019 08:22 9,1 C 8,9 C 7,8 C 75 % 1002,5 hPa 0,0 l/m 0 min 0 min 76 W/m 16,1 km/h (3 Bft) 95,74 %
08.05.2019 08:24 9,1 C 8,9 C 7,8 C 75 % 1002,4 hPa 0,0 l/m 0 min 0 min 82 W/m 22,5 km/h (4 Bft) 93,62 %
08.05.2019 08:26 9,1 C 8,9 C 8,3 C 75 % 1002,4 hPa 0,0 l/m 0 min 0 min 98 W/m 25,7 km/h (4 Bft) 93,62 %
08.05.2019 08:28 9,1 C 8,9 C 8,3 C 74 % 1002,4 hPa 0,0 l/m 0 min 0 min 106 W/m 16,1 km/h (3 Bft) 95,74 %
08.05.2019 08:30 9,1 C 9,4 C 8,3 C 74 % 1002,4 hPa 0,0 l/m 0 min 0 min 104 W/m 9,7 km/h (2 Bft) 93,48 %
08.05.2019 08:32 9,1 C 9,4 C 8,9 C 74 % 1002,4 hPa 0,0 l/m 0 min 0 min 110 W/m 12,9 km/h (3 Bft) 93,62 %
08.05.2019 08:34 9,1 C 9,4 C 8,9 C 75 % 1002,3 hPa 0,0 l/m 0 min 0 min 118 W/m 16,1 km/h (3 Bft) 97,87 %
08.05.2019 08:36 9,1 C 9,4 C 8,9 C 75 % 1002,2 hPa 0,0 l/m 0 min 0 min 139 W/m 16,1 km/h (3 Bft) 97,87 %
08.05.2019 08:38 9,1 C 9,4 C 8,9 C 74 % 1002,2 hPa 0,0 l/m 0 min 0 min 161 W/m 22,5 km/h (4 Bft) 97,87 %
08.05.2019 08:40 9,2 C 10,0 C 9,4 C 74 % 1002,2 hPa 0,0 l/m 0 min 0 min 164 W/m 22,5 km/h (4 Bft) 95,65 %
08.05.2019 08:42 9,2 C 10,6 C 9,4 C 74 % 1002,1 hPa 0,0 l/m 2 min 0 min 234 W/m 22,5 km/h (4 Bft) 95,74 %
08.05.2019 08:44 9,3 C 11,7 C 9,4 C 74 % 1002,1 hPa 0,0 l/m 2 min 0 min 252 W/m 22,5 km/h (4 Bft) 95,74 %
08.05.2019 08:46 9,3 C 11,7 C 10,0 C 74 % 1002,2 hPa 0,0 l/m 2 min 0 min 236 W/m 25,7 km/h (4 Bft) 97,87 %
08.05.2019 08:48 9,4 C 11,7 C 10,0 C 74 % 1002,1 hPa 0,0 l/m 2 min 0 min 242 W/m 16,1 km/h (3 Bft) 97,87 %
08.05.2019 08:50 9,5 C 12,8 C 11,7 C 74 % 1002,1 hPa 0,0 l/m 2 min 0 min 361 W/m 19,3 km/h (3 Bft) 100,00 %
08.05.2019 08:52 9,6 C 12,2 C 11,1 C 74 % 1002,1 hPa 0,0 l/m 2 min 0 min 324 W/m 22,5 km/h (4 Bft) 97,83 %
08.05.2019 08:54 9,7 C 12,2 C 11,1 C 73 % 1002,1 hPa 0,0 l/m 2 min 0 min 255 W/m 22,5 km/h (4 Bft) 97,87 %
08.05.2019 08:56 9,8 C 11,1 C 10,6 C 73 % 1002,1 hPa 0,0 l/m 0 min 0 min 192 W/m 16,1 km/h (3 Bft) 97,87 %
08.05.2019 08:58 9,9 C 10,6 C 10,6 C 73 % 1002,1 hPa 0,0 l/m 0 min 0 min 157 W/m 19,3 km/h (3 Bft) 100,00 %
08.05.2019 09:00 9,9 C 10,6 C 10,0 C 72 % 1002,1 hPa 0,0 l/m 0 min 0 min 150 W/m 16,1 km/h (3 Bft) 100,00 %
08.05.2019 09:02 10,0 C 10,6 C 10,0 C 72 % 1002,0 hPa 0,0 l/m 0 min 0 min 134 W/m 16,1 km/h (3 Bft) 97,87 %
08.05.2019 09:04 10,1 C 10,0 C 10,0 C 72 % 1002,0 hPa 0,0 l/m 0 min 0 min 123 W/m 16,1 km/h (3 Bft) 97,83 %
08.05.2019 09:06 10,1 C 10,0 C 9,4 C 71 % 1002,0 hPa 0,0 l/m 0 min 0 min 128 W/m 16,1 km/h (3 Bft) 97,87 %
08.05.2019 09:08 10,1 C 10,0 C 9,4 C 71 % 1002,0 hPa 0,0 l/m 0 min 0 min 134 W/m 16,1 km/h (3 Bft) 97,87 %
08.05.2019 09:10 10,1 C 10,0 C 9,4 C 71 % 1001,9 hPa 0,0 l/m 0 min 0 min 128 W/m 16,1 km/h (3 Bft) 97,87 %
08.05.2019 09:12 10,1 C 10,0 C 9,4 C 71 % 1001,9 hPa 0,0 l/m 0 min 0 min 126 W/m 19,3 km/h (3 Bft) 95,74 %
08.05.2019 09:14 10,1 C 10,0 C 9,4 C 72 % 1001,8 hPa 0,0 l/m 0 min 0 min 136 W/m 12,9 km/h (3 Bft) 97,87 %
08.05.2019 09:16 10,1 C 10,0 C 9,4 C 72 % 1001,8 hPa 0,0 l/m 0 min 0 min 153 W/m 19,3 km/h (3 Bft) 95,65 %
08.05.2019 09:18 10,1 C 10,6 C 10,0 C 72 % 1001,7 hPa 0,0 l/m 0 min 0 min 167 W/m 12,9 km/h (3 Bft) 97,87 %
08.05.2019 09:20 10,1 C 10,6 C 10,0 C 72 % 1001,7 hPa 0,0 l/m 0 min 0 min 166 W/m 12,9 km/h (3 Bft) 97,87 %
08.05.2019 09:22 10,1 C 10,0 C 10,0 C 72 % 1001,6 hPa 0,0 l/m 0 min 0 min 168 W/m 25,7 km/h (4 Bft) 97,87 %
08.05.2019 09:24 10,1 C 10,0 C 10,0 C 72 % 1001,6 hPa 0,0 l/m 0 min 0 min 154 W/m 19,3 km/h (3 Bft) 97,87 %
08.05.2019 09:26 10,1 C 10,0 C 9,4 C 72 % 1001,6 hPa 0,0 l/m 0 min 0 min 125 W/m 19,3 km/h (3 Bft) 97,87 %
08.05.2019 09:28 10,1 C 10,0 C 9,4 C 72 % 1001,5 hPa 0,0 l/m 0 min 0 min 101 W/m 12,9 km/h (3 Bft) 95,65 %
08.05.2019 09:30 10,1 C 10,0 C 9,4 C 73 % 1001,5 hPa 0,0 l/m 0 min 0 min 91 W/m 12,9 km/h (3 Bft) 93,62 %
08.05.2019 09:32 10,1 C 10,0 C 9,4 C 73 % 1001,5 hPa 0,0 l/m 0 min 0 min 103 W/m 12,9 km/h (3 Bft) 97,87 %
08.05.2019 09:34 10,1 C 10,0 C 9,4 C 73 % 1001,4 hPa 0,0 l/m 0 min 0 min 122 W/m 22,5 km/h (4 Bft) 97,87 %
08.05.2019 09:36 10,1 C 10,0 C 9,4 C 74 % 1001,3 hPa 0,0 l/m 0 min 0 min 123 W/m 16,1 km/h (3 Bft) 97,87 %
08.05.2019 09:38 10,1 C 10,0 C 9,4 C 74 % 1001,3 hPa 0,0 l/m 0 min 0 min 119 W/m 22,5 km/h (4 Bft) 97,87 %
08.05.2019 09:40 10,1 C 10,0 C 9,4 C 74 % 1001,3 hPa 0,0 l/m 0 min 0 min 126 W/m 16,1 km/h (3 Bft) 97,83 %
08.05.2019 09:42 10,1 C 10,0 C 9,4 C 74 % 1001,2 hPa 0,0 l/m 0 min 0 min 131 W/m 19,3 km/h (3 Bft) 95,74 %
08.05.2019 09:44 10,1 C 10,0 C 9,4 C 74 % 1001,2 hPa 0,0 l/m 0 min 0 min 123 W/m 22,5 km/h (4 Bft) 97,87 %
08.05.2019 09:46 10,1 C 10,0 C 9,4 C 74 % 1001,2 hPa 0,0 l/m 0 min 0 min 107 W/m 9,7 km/h (2 Bft) 95,74 %
08.05.2019 09:48 10,1 C 10,0 C 9,4 C 74 % 1001,1 hPa 0,0 l/m 0 min 0 min 94 W/m 16,1 km/h (3 Bft) 97,87 %
08.05.2019 09:50 10,0 C 9,4 C 9,4 C 74 % 1001,1 hPa 0,0 l/m 0 min 0 min 92 W/m 22,5 km/h (4 Bft) 97,83 %
08.05.2019 09:52 10,0 C 9,4 C 9,4 C 74 % 1001,0 hPa 0,0 l/m 0 min 0 min 96 W/m 19,3 km/h (3 Bft) 95,74 %
08.05.2019 09:54 10,0 C 10,0 C 9,4 C 74 % 1001,0 hPa 0,0 l/m 0 min 0 min 101 W/m 9,7 km/h (2 Bft) 95,74 %
08.05.2019 09:56 10,0 C 10,0 C 9,4 C 74 % 1001,0 hPa 0,0 l/m 0 min 0 min 102 W/m 12,9 km/h (3 Bft) 95,74 %
08.05.2019 09:58 10,0 C 10,0 C 9,4 C 75 % 1001,0 hPa 0,0 l/m 0 min 0 min 101 W/m 22,5 km/h (4 Bft) 100,00 %
08.05.2019 10:00 10,0 C 10,0 C 9,4 C 75 % 1000,9 hPa 0,0 l/m 0 min 0 min 99 W/m 12,9 km/h (3 Bft) 97,87 %
08.05.2019 10:02 10,0 C 10,0 C 9,4 C 75 % 1000,9 hPa 0,0 l/m 0 min 0 min 106 W/m 12,9 km/h (3 Bft) 97,83 %
08.05.2019 10:04 10,0 C 10,0 C 9,4 C 75 % 1000,8 hPa 0,0 l/m 0 min 0 min 119 W/m 9,7 km/h (2 Bft) 100,00 %
08.05.2019 10:06 10,0 C 10,0 C 9,4 C 75 % 1000,8 hPa 0,0 l/m 0 min 0 min 135 W/m 12,9 km/h (3 Bft) 100,00 %
08.05.2019 10:08 10,0 C 10,6 C 10,0 C 76 % 1000,8 hPa 0,0 l/m 0 min 0 min 151 W/m 12,9 km/h (3 Bft) 100,00 %
08.05.2019 10:10 10,1 C 10,6 C 10,0 C 76 % 1000,7 hPa 0,0 l/m 0 min 0 min 182 W/m 12,9 km/h (3 Bft) 100,00 %
08.05.2019 10:12 10,1 C 10,6 C 10,0 C 76 % 1000,6 hPa 0,0 l/m 0 min 0 min 209 W/m 9,7 km/h (2 Bft) 100,00 %
08.05.2019 10:14 10,1 C 11,1 C 10,6 C 76 % 1000,7 hPa 0,0 l/m 0 min 0 min 221 W/m 9,7 km/h (2 Bft) 100,00 %
08.05.2019 10:16 10,2 C 11,1 C 10,6 C 76 % 1000,7 hPa 0,0 l/m 0 min 0 min 218 W/m 12,9 km/h (3 Bft) 100,00 %
08.05.2019 10:18 10,2 C 11,1 C 10,6 C 76 % 1000,6 hPa 0,0 l/m 0 min 0 min 221 W/m 12,9 km/h (3 Bft) 100,00 %
08.05.2019 10:20 10,2 C 11,1 C 10,6 C 75 % 1000,6 hPa 0,0 l/m 0 min 0 min 227 W/m 19,3 km/h (3 Bft) 100,00 %
08.05.2019 10:22 10,3 C 11,1 C 10,6 C 75 % 1000,6 hPa 0,0 l/m 0 min 0 min 229 W/m 22,5 km/h (4 Bft) 100,00 %
08.05.2019 10:24 10,3 C 11,1 C 10,6 C 75 % 1000,6 hPa 0,0 l/m 0 min 0 min 205 W/m 22,5 km/h (4 Bft) 100,00 %
08.05.2019 10:26 10,4 C 11,1 C 10,6 C 75 % 1000,6 hPa 0,0 l/m 0 min 0 min 187 W/m 12,9 km/h (3 Bft) 97,87 %
08.05.2019 10:28 10,4 C 11,7 C 10,6 C 75 % 1000,5 hPa 0,0 l/m 0 min 0 min 195 W/m 16,1 km/h (3 Bft) 97,87 %
08.05.2019 10:30 10,5 C 11,1 C 10,6 C 75 % 1000,5 hPa 0,0 l/m 0 min 0 min 211 W/m 19,3 km/h (3 Bft) 97,87 %
08.05.2019 10:32 10,6 C 11,7 C 10,6 C 75 % 1000,4 hPa 0,0 l/m 0 min 0 min 226 W/m 22,5 km/h (4 Bft) 97,87 %
08.05.2019 10:34 10,6 C 11,7 C 11,1 C 75 % 1000,4 hPa 0,0 l/m 0 min 0 min 258 W/m 25,7 km/h (4 Bft) 97,87 %
08.05.2019 10:36 10,7 C 11,7 C 11,1 C 75 % 1000,4 hPa 0,0 l/m 0 min 0 min 275 W/m 32,2 km/h (5 Bft) 97,87 %
08.05.2019 10:38 10,7 C 11,7 C 11,1 C 75 % 1000,5 hPa 0,0 l/m 0 min 0 min 301 W/m 19,3 km/h (3 Bft) 97,83 %
08.05.2019 10:40 10,8 C 12,8 C 11,7 C 75 % 1000,4 hPa 0,0 l/m 0 min 0 min 320 W/m 12,9 km/h (3 Bft) 97,87 %
08.05.2019 10:42 10,9 C 12,2 C 11,7 C 75 % 1000,4 hPa 0,0 l/m 0 min 0 min 317 W/m 19,3 km/h (3 Bft) 95,74 %
08.05.2019 10:44 10,9 C 12,2 C 11,7 C 75 % 1000,4 hPa 0,0 l/m 0 min 0 min 291 W/m 22,5 km/h (4 Bft) 95,74 %
08.05.2019 10:46 11,0 C 12,2 C 11,7 C 75 % 1000,4 hPa 0,0 l/m 0 min 0 min 285 W/m 19,3 km/h (3 Bft) 97,87 %
08.05.2019 10:48 11,1 C 12,2 C 11,7 C 75 % 1000,4 hPa 0,0 l/m 0 min 0 min 284 W/m 22,5 km/h (4 Bft) 97,87 %
08.05.2019 10:50 11,1 C 12,2 C 11,7 C 75 % 1000,3 hPa 0,0 l/m 0 min 0 min 285 W/m 25,7 km/h (4 Bft) 97,83 %
08.05.2019 10:52 11,2 C 12,2 C 11,7 C 75 % 1000,3 hPa 0,0 l/m 0 min 0 min 282 W/m 29,0 km/h (5 Bft) 97,87 %
08.05.2019 10:54 11,2 C 12,2 C 11,7 C 75 % 1000,3 hPa 0,0 l/m 0 min 0 min 279 W/m 12,9 km/h (3 Bft) 97,87 %
08.05.2019 10:56 11,3 C 12,2 C 12,2 C 75 % 1000,2 hPa 0,0 l/m 0 min 2 min 285 W/m 16,1 km/h (3 Bft) 97,87 %
08.05.2019 10:58 11,3 C 11,7 C 11,7 C 76 % 1000,2 hPa 0,0 l/m 0 min 2 min 290 W/m 29,0 km/h (5 Bft) 95,74 %
08.05.2019 11:00 11,4 C 11,7 C 11,7 C 76 % 1000,3 hPa 0,0 l/m 0 min 2 min 299 W/m 19,3 km/h (3 Bft) 97,14 %
08.05.2019 11:02 11,4 C 11,1 C 11,1 C 76 % 1000,2 hPa 0,0 l/m 0 min 2 min 310 W/m 25,7 km/h (4 Bft) 98,00 %
08.05.2019 11:04 11,4 C 10,6 C 10,6 C 77 % 1000,2 hPa 0,0 l/m 0 min 2 min 302 W/m 25,7 km/h (4 Bft) 95,74 %
08.05.2019 11:06 11,5 C 10,6 C 10,6 C 77 % 1000,2 hPa 0,0 l/m 0 min 2 min 306 W/m 29,0 km/h (5 Bft) 95,74 %
08.05.2019 11:08 11,5 C 10,6 C 10,6 C 78 % 1000,2 hPa 0,0 l/m 0 min 2 min 304 W/m 25,7 km/h (4 Bft) 95,74 %
08.05.2019 11:10 11,5 C 10,6 C 10,6 C 78 % 1000,2 hPa 0,0 l/m 0 min 2 min 316 W/m 25,7 km/h (4 Bft) 97,87 %
08.05.2019 11:12 11,5 C 11,1 C 10,6 C 78 % 1000,2 hPa 0,0 l/m 0 min 2 min 315 W/m 19,3 km/h (3 Bft) 97,83 %
08.05.2019 11:14 11,5 C 10,6 C 10,0 C 78 % 1000,2 hPa 0,0 l/m 0 min 2 min 263 W/m 29,0 km/h (5 Bft) 97,87 %
08.05.2019 11:16 11,5 C 11,1 C 10,0 C 78 % 1000,2 hPa 0,0 l/m 0 min 2 min 219 W/m 19,3 km/h (3 Bft) 97,87 %
08.05.2019 11:18 11,5 C 11,1 C 10,0 C 78 % 1000,1 hPa 0,0 l/m 0 min 2 min 196 W/m 16,1 km/h (3 Bft) 95,74 %
08.05.2019 11:20 11,5 C 11,1 C 10,0 C 78 % 1000,1 hPa 0,0 l/m 0 min 2 min 212 W/m 25,7 km/h (4 Bft) 97,87 %
08.05.2019 11:22 11,4 C 10,0 C 9,4 C 78 % 1000,0 hPa 0,0 l/m 0 min 2 min 222 W/m 25,7 km/h (4 Bft) 95,65 %
08.05.2019 11:24 11,4 C 10,6 C 10,0 C 78 % 1000,0 hPa 0,0 l/m 0 min 2 min 229 W/m 25,7 km/h (4 Bft) 97,87 %
08.05.2019 11:26 11,4 C 10,6 C 10,0 C 78 % 1000,0 hPa 0,0 l/m 0 min 2 min 250 W/m 25,7 km/h (4 Bft) 97,87 %
08.05.2019 11:28 11,3 C 11,1 C 10,6 C 78 % 1000,0 hPa 0,0 l/m 0 min 0 min 279 W/m 25,7 km/h (4 Bft) 97,87 %
08.05.2019 11:30 11,3 C 11,1 C 10,6 C 77 % 1000,0 hPa 0,0 l/m 0 min 0 min 287 W/m 29,0 km/h (5 Bft) 95,74 %
08.05.2019 11:32 11,3 C 11,1 C 10,6 C 77 % 999,9 hPa 0,0 l/m 0 min 0 min 290 W/m 29,0 km/h (5 Bft) 97,87 %
08.05.2019 11:34 11,2 C 11,7 C 10,6 C 77 % 999,9 hPa 0,0 l/m 0 min 0 min 304 W/m 16,1 km/h (3 Bft) 97,83 %
08.05.2019 11:36 11,2 C 11,7 C 11,1 C 77 % 999,9 hPa 0,0 l/m 0 min 0 min 323 W/m 22,5 km/h (4 Bft) 95,74 %
08.05.2019 11:38 11,2 C 11,7 C 11,1 C 77 % 999,9 hPa 0,0 l/m 0 min 0 min 333 W/m 22,5 km/h (4 Bft) 95,74 %
08.05.2019 11:40 11,2 C 12,2 C 11,7 C 77 % 999,8 hPa 0,0 l/m 0 min 0 min 336 W/m 19,3 km/h (3 Bft) 95,74 %
08.05.2019 11:42 11,2 C 11,7 C 11,7 C 77 % 999,7 hPa 0,0 l/m 0 min 0 min 329 W/m 22,5 km/h (4 Bft) 97,87 %
08.05.2019 11:44 11,2 C 11,7 C 11,7 C 78 % 999,7 hPa 0,0 l/m 0 min 2 min 336 W/m 29,0 km/h (5 Bft) 97,87 %
08.05.2019 11:46 11,3 C 11,1 C 11,1 C 78 % 999,7 hPa 0,0 l/m 0 min 2 min 330 W/m 32,2 km/h (5 Bft) 97,83 %
08.05.2019 11:48 11,2 C 11,1 C 11,1 C 78 % 999,6 hPa 0,0 l/m 0 min 2 min 301 W/m 25,7 km/h (4 Bft) 97,87 %
08.05.2019 11:50 11,2 C 10,6 C 10,6 C 78 % 999,6 hPa 0,0 l/m 0 min 2 min 262 W/m 25,7 km/h (4 Bft) 95,74 %
08.05.2019 11:52 11,2 C 10,0 C 10,0 C 79 % 999,6 hPa 0,0 l/m 0 min 2 min 223 W/m 41,8 km/h (6 Bft) 97,87 %
08.05.2019 11:54 11,2 C 9,4 C 9,4 C 79 % 999,5 hPa 0,0 l/m 0 min 2 min 207 W/m 25,7 km/h (4 Bft) 97,87 %
08.05.2019 11:56 11,2 C 9,4 C 8,9 C 79 % 999,5 hPa 0,0 l/m 0 min 2 min 205 W/m 22,5 km/h (4 Bft) 95,74 %
08.05.2019 11:58 11,1 C 8,9 C 8,9 C 79 % 999,5 hPa 0,0 l/m 0 min 2 min 162 W/m 25,7 km/h (4 Bft) 97,83 %
08.05.2019 12:00 11,0 C 8,9 C 8,3 C 80 % 999,5 hPa 0,0 l/m 0 min 2 min 135 W/m 25,7 km/h (4 Bft) 97,87 %
08.05.2019 12:02 10,9 C 8,9 C 8,3 C 80 % 999,4 hPa 0,0 l/m 0 min 2 min 150 W/m 29,0 km/h (5 Bft) 100,00 %
08.05.2019 12:04 10,8 C 8,3 C 8,3 C 81 % 999,4 hPa 0,0 l/m 0 min 2 min 178 W/m 38,6 km/h (5 Bft) 95,74 %
08.05.2019 12:07 10,7 C 8,3 C 8,3 C 82 % 999,3 hPa 0,0 l/m 0 min 3 min 205 W/m 32,2 km/h (5 Bft) 98,57 %
08.05.2019 12:08 10,7 C 8,9 C 8,3 C 82 % 999,3 hPa 0,0 l/m 0 min 1 min 216 W/m 16,1 km/h (3 Bft) 100,00 %
08.05.2019 12:10 10,7 C 8,9 C 8,3 C 83 % 999,2 hPa 0,0 l/m 0 min 2 min 231 W/m 29,0 km/h (5 Bft) 97,83 %
08.05.2019 12:12 10,6 C 9,4 C 8,9 C 83 % 999,2 hPa 0,0 l/m 0 min 0 min 301 W/m 22,5 km/h (4 Bft) 97,87 %
08.05.2019 12:14 10,6 C 9,4 C 9,4 C 83 % 999,1 hPa 0,0 l/m 0 min 2 min 380 W/m 32,2 km/h (5 Bft) 93,62 %
08.05.2019 12:16 10,6 C 10,6 C 10,6 C 84 % 999,0 hPa 0,0 l/m 2 min 0 min 472 W/m 25,7 km/h (4 Bft) 97,87 %
08.05.2019 12:18 10,6 C 11,1 C 10,6 C 85 % 999,0 hPa 0,0 l/m 2 min 0 min 516 W/m 22,5 km/h (4 Bft) 97,87 %
08.05.2019 12:20 10,6 C 10,6 C 10,6 C 85 % 998,9 hPa 0,0 l/m 0 min 0 min 338 W/m 25,7 km/h (4 Bft) 97,83 %
08.05.2019 12:22 10,6 C 10,6 C 10,6 C 85 % 999,0 hPa 0,0 l/m 0 min 0 min 310 W/m 25,7 km/h (4 Bft) 95,74 %
08.05.2019 12:24 10,6 C 10,6 C 10,6 C 85 % 998,9 hPa 0,0 l/m 0 min 0 min 331 W/m 29,0 km/h (5 Bft) 97,87 %
08.05.2019 12:26 10,6 C 11,1 C 11,1 C 85 % 998,9 hPa 0,0 l/m 0 min 0 min 371 W/m 22,5 km/h (4 Bft) 97,87 %
08.05.2019 12:28 10,6 C 11,1 C 11,1 C 85 % 998,7 hPa 0,0 l/m 0 min 0 min 364 W/m 41,8 km/h (6 Bft) 97,87 %
08.05.2019 12:30 10,6 C 11,1 C 11,1 C 85 % 998,6 hPa 0,0 l/m 0 min 0 min 326 W/m 22,5 km/h (4 Bft) 97,87 %
08.05.2019 12:32 10,6 C 11,1 C 11,1 C 85 % 998,6 hPa 0,0 l/m 0 min 0 min 278 W/m 22,5 km/h (4 Bft) 97,83 %
08.05.2019 12:34 10,7 C 10,6 C 10,6 C 85 % 998,6 hPa 0,0 l/m 0 min 0 min 224 W/m 22,5 km/h (4 Bft) 97,87 %
08.05.2019 12:36 10,6 C 10,6 C 10,0 C 85 % 998,7 hPa 0,0 l/m 0 min 0 min 164 W/m 22,5 km/h (4 Bft) 97,87 %
08.05.2019 12:38 10,6 C 10,0 C 10,0 C 84 % 998,7 hPa 0,0 l/m 0 min 0 min 147 W/m 22,5 km/h (4 Bft) 97,87 %
08.05.2019 12:40 10,6 C 10,0 C 10,0 C 84 % 998,6 hPa 0,0 l/m 0 min 2 min 163 W/m 22,5 km/h (4 Bft) 97,87 %
08.05.2019 12:42 10,6 C 10,6 C 10,0 C 84 % 998,4 hPa 0,0 l/m 0 min 0 min 195 W/m 16,1 km/h (3 Bft) 100,00 %
08.05.2019 12:44 10,6 C 10,6 C 10,0 C 85 % 998,5 hPa 0,0 l/m 0 min 0 min 179 W/m 22,5 km/h (4 Bft) 97,83 %
08.05.2019 12:46 10,6 C 10,6 C 10,0 C 85 % 998,4 hPa 0,0 l/m 0 min 0 min 187 W/m 25,7 km/h (4 Bft) 97,87 %
08.05.2019 12:48 10,6 C 10,0 C 10,0 C 85 % 998,4 hPa 0,0 l/m 0 min 0 min 202 W/m 35,4 km/h (5 Bft) 97,87 %
08.05.2019 12:50 10,6 C 10,6 C 10,6 C 85 % 998,3 hPa 0,0 l/m 0 min 0 min 200 W/m 19,3 km/h (3 Bft) 97,87 %
08.05.2019 12:52 10,6 C 10,6 C 10,6 C 85 % 998,2 hPa 0,0 l/m 0 min 0 min 205 W/m 22,5 km/h (4 Bft) 95,74 %
08.05.2019 12:54 10,6 C 11,1 C 10,6 C 85 % 998,2 hPa 0,0 l/m 0 min 0 min 208 W/m 25,7 km/h (4 Bft) 97,87 %
08.05.2019 12:56 10,7 C 11,1 C 10,6 C 85 % 998,0 hPa 0,0 l/m 0 min 0 min 199 W/m 22,5 km/h (4 Bft) 95,65 %
08.05.2019 12:58 10,7 C 11,1 C 10,6 C 85 % 998,0 hPa 0,0 l/m 0 min 0 min 199 W/m 22,5 km/h (4 Bft) 100,00 %
08.05.2019 13:00 10,7 C 11,1 C 10,6 C 85 % 997,9 hPa 0,0 l/m 0 min 0 min 211 W/m 22,5 km/h (4 Bft) 100,00 %
08.05.2019 13:02 10,7 C 11,1 C 10,6 C 85 % 997,9 hPa 0,0 l/m 0 min 0 min 241 W/m 19,3 km/h (3 Bft) 97,87 %
08.05.2019 13:04 10,8 C 12,2 C 11,1 C 85 % 997,7 hPa 0,0 l/m 0 min 0 min 278 W/m 19,3 km/h (3 Bft) 95,74 %
08.05.2019 13:06 10,8 C 11,7 C 11,7 C 85 % 997,5 hPa 0,0 l/m 0 min 0 min 296 W/m 29,0 km/h (5 Bft) 95,74 %
08.05.2019 13:08 10,9 C 11,7 C 11,7 C 85 % 997,5 hPa 0,0 l/m 0 min 0 min 313 W/m 38,6 km/h (5 Bft) 97,83 %
08.05.2019 13:10 10,9 C 11,7 C 11,7 C 85 % 997,5 hPa 0,0 l/m 0 min 0 min 290 W/m 25,7 km/h (4 Bft) 97,87 %
08.05.2019 13:12 11,0 C 11,7 C 11,1 C 85 % 997,4 hPa 0,0 l/m 0 min 0 min 262 W/m 22,5 km/h (4 Bft) 97,87 %
08.05.2019 13:14 11,0 C 11,7 C 11,7 C 85 % 997,4 hPa 0,0 l/m 0 min 0 min 285 W/m 22,5 km/h (4 Bft) 97,87 %
08.05.2019 13:16 11,1 C 12,2 C 11,7 C 85 % 997,3 hPa 0,0 l/m 0 min 0 min 318 W/m 25,7 km/h (4 Bft) 97,87 %
08.05.2019 13:18 11,2 C 12,2 C 11,7 C 85 % 997,2 hPa 0,0 l/m 0 min 0 min 344 W/m 25,7 km/h (4 Bft) 97,87 %
08.05.2019 13:20 11,2 C 12,8 C 12,2 C 85 % 997,3 hPa 0,0 l/m 0 min 0 min 352 W/m 19,3 km/h (3 Bft) 97,83 %
08.05.2019 13:22 11,3 C 12,8 C 12,2 C 85 % 997,3 hPa 0,0 l/m 0 min 0 min 389 W/m 19,3 km/h (3 Bft) 97,87 %
08.05.2019 13:24 11,3 C 12,8 C 12,2 C 85 % 997,3 hPa 0,0 l/m 0 min 0 min 369 W/m 25,7 km/h (4 Bft) 97,87 %
08.05.2019 13:26 11,4 C 12,2 C 12,2 C 84 % 997,3 hPa 0,0 l/m 0 min 0 min 294 W/m 35,4 km/h (5 Bft) 97,87 %
08.05.2019 13:28 11,4 C 12,2 C 11,7 C 84 % 997,3 hPa 0,0 l/m 0 min 0 min 216 W/m 22,5 km/h (4 Bft) 95,74 %
08.05.2019 13:30 11,5 C 12,2 C 11,7 C 84 % 997,3 hPa 0,0 l/m 0 min 0 min 207 W/m 25,7 km/h (4 Bft) 97,87 %
08.05.2019 13:32 11,6 C 11,7 C 11,7 C 84 % 997,3 hPa 0,0 l/m 0 min 0 min 199 W/m 25,7 km/h (4 Bft) 97,83 %
08.05.2019 13:34 11,6 C 11,7 C 11,1 C 83 % 997,4 hPa 0,0 l/m 0 min 0 min 169 W/m 32,2 km/h (5 Bft) 95,74 %
08.05.2019 13:36 11,6 C 11,7 C 11,1 C 83 % 997,4 hPa 0,0 l/m 0 min 0 min 139 W/m 32,2 km/h (5 Bft) 97,87 %
08.05.2019 13:38 11,6 C 11,1 C 11,1 C 83 % 997,4 hPa 0,0 l/m 0 min 0 min 125 W/m 25,7 km/h (4 Bft) 97,87 %
08.05.2019 13:40 11,6 C 11,7 C 11,1 C 83 % 997,4 hPa 0,0 l/m 0 min 0 min 129 W/m 19,3 km/h (3 Bft) 95,74 %
08.05.2019 13:42 11,6 C 11,7 C 11,1 C 83 % 997,4 hPa 0,0 l/m 0 min 0 min 151 W/m 35,4 km/h (5 Bft) 100,00 %
08.05.2019 13:44 11,6 C 11,7 C 11,1 C 83 % 997,3 hPa 0,0 l/m 0 min 0 min 183 W/m 25,7 km/h (4 Bft) 95,65 %
08.05.2019 13:46 11,6 C 11,7 C 11,1 C 83 % 997,3 hPa 0,0 l/m 0 min 0 min 200 W/m 22,5 km/h (4 Bft) 97,87 %
08.05.2019 13:48 11,6 C 11,7 C 11,1 C 83 % 997,3 hPa 0,0 l/m 0 min 0 min 232 W/m 25,7 km/h (4 Bft) 100,00 %
08.05.2019 13:50 11,7 C 11,7 C 11,1 C 84 % 997,2 hPa 0,0 l/m 0 min 2 min 283 W/m 32,2 km/h (5 Bft) 97,87 %
08.05.2019 13:52 11,7 C 10,6 C 11,1 C 84 % 997,3 hPa 0,0 l/m 0 min 2 min 288 W/m 35,4 km/h (5 Bft) 95,74 %
08.05.2019 13:54 11,7 C 10,6 C 11,1 C 85 % 997,2 hPa 0,0 l/m 0 min 2 min 290 W/m 45,1 km/h (6 Bft) 97,83 %
08.05.2019 13:56 11,7 C 10,6 C 10,6 C 85 % 997,2 hPa 0,0 l/m 0 min 2 min 261 W/m 35,4 km/h (5 Bft) 100,00 %
08.05.2019 13:58 11,7 C 10,6 C 10,6 C 85 % 997,0 hPa 0,0 l/m 0 min 2 min 213 W/m 25,7 km/h (4 Bft) 100,00 %
08.05.2019 14:00 11,8 C 10,6 C 10,6 C 86 % 997,2 hPa 0,0 l/m 0 min 2 min 194 W/m 22,5 km/h (4 Bft) 97,87 %
08.05.2019 14:02 11,8 C 10,0 C 10,0 C 86 % 997,1 hPa 0,0 l/m 0 min 2 min 157 W/m 32,2 km/h (5 Bft) 100,00 %
08.05.2019 14:04 11,7 C 10,0 C 9,4 C 86 % 997,2 hPa 0,0 l/m 0 min 2 min 151 W/m 29,0 km/h (5 Bft) 100,00 %
08.05.2019 14:06 11,7 C 10,0 C 10,0 C 86 % 997,2 hPa 0,0 l/m 0 min 2 min 185 W/m 25,7 km/h (4 Bft) 100,00 %
08.05.2019 14:08 11,7 C 10,0 C 10,0 C 86 % 997,1 hPa 0,0 l/m 0 min 2 min 169 W/m 29,0 km/h (5 Bft) 100,00 %
08.05.2019 14:10 11,7 C 10,6 C 10,0 C 87 % 997,1 hPa 0,0 l/m 0 min 0 min 154 W/m 16,1 km/h (3 Bft) 97,87 %
08.05.2019 14:12 11,7 C 10,6 C 10,0 C 87 % 997,0 hPa 0,0 l/m 0 min 0 min 148 W/m 25,7 km/h (4 Bft) 100,00 %
08.05.2019 14:14 11,7 C 10,6 C 10,0 C 87 % 997,0 hPa 0,0 l/m 0 min 2 min 136 W/m 16,1 km/h (3 Bft) 100,00 %
08.05.2019 14:16 11,7 C 10,6 C 10,0 C 87 % 997,0 hPa 0,0 l/m 0 min 0 min 151 W/m 22,5 km/h (4 Bft) 100,00 %
08.05.2019 14:18 11,7 C 10,6 C 10,0 C 87 % 997,0 hPa 0,0 l/m 0 min 0 min 167 W/m 25,7 km/h (4 Bft) 100,00 %
08.05.2019 14:20 11,7 C 10,6 C 10,6 C 88 % 996,9 hPa 0,0 l/m 0 min 2 min 187 W/m 19,3 km/h (3 Bft) 100,00 %
08.05.2019 14:22 11,7 C 10,6 C 10,6 C 88 % 996,9 hPa 0,0 l/m 0 min 0 min 214 W/m 25,7 km/h (4 Bft) 97,87 %
08.05.2019 14:24 11,7 C 11,1 C 10,6 C 88 % 996,7 hPa 0,0 l/m 0 min 2 min 214 W/m 29,0 km/h (5 Bft) 97,87 %
08.05.2019 14:26 11,7 C 11,1 C 10,6 C 88 % 996,8 hPa 0,0 l/m 0 min 2 min 207 W/m 25,7 km/h (4 Bft) 97,87 %
08.05.2019 14:28 11,7 C 11,1 C 10,6 C 88 % 996,8 hPa 0,0 l/m 0 min 0 min 202 W/m 25,7 km/h (4 Bft) 97,87 %
08.05.2019 14:30 11,7 C 11,7 C 11,1 C 88 % 996,9 hPa 0,0 l/m 0 min 2 min 214 W/m 22,5 km/h (4 Bft) 97,83 %
08.05.2019 14:32 11,7 C 11,7 C 11,1 C 88 % 996,7 hPa 0,0 l/m 0 min 0 min 240 W/m 19,3 km/h (3 Bft) 97,87 %
08.05.2019 14:34 11,7 C 11,7 C 11,1 C 88 % 996,7 hPa 0,0 l/m 0 min 0 min 234 W/m 19,3 km/h (3 Bft) 97,87 %
08.05.2019 14:36 11,8 C 11,7 C 11,1 C 88 % 996,7 hPa 0,0 l/m 0 min 0 min 191 W/m 29,0 km/h (5 Bft) 97,87 %
08.05.2019 14:38 11,8 C 11,1 C 11,1 C 88 % 996,7 hPa 0,0 l/m 0 min 2 min 139 W/m 22,5 km/h (4 Bft) 97,87 %
08.05.2019 14:40 11,8 C 11,1 C 11,1 C 88 % 996,7 hPa 0,0 l/m 0 min 2 min 136 W/m 19,3 km/h (3 Bft) 97,87 %
08.05.2019 14:42 11,8 C 10,6 C 10,6 C 88 % 996,7 hPa 0,0 l/m 0 min 2 min 122 W/m 16,1 km/h (3 Bft) 95,65 %
08.05.2019 14:44 11,8 C 10,6 C 10,6 C 88 % 996,7 hPa 0,0 l/m 0 min 2 min 106 W/m 29,0 km/h (5 Bft) 95,74 %
08.05.2019 14:46 11,8 C 10,6 C 10,0 C 88 % 996,7 hPa 0,0 l/m 0 min 2 min 122 W/m 29,0 km/h (5 Bft) 95,74 %
08.05.2019 14:48 11,8 C 10,6 C 10,0 C 88 % 996,6 hPa 0,0 l/m 0 min 2 min 144 W/m 25,7 km/h (4 Bft) 97,87 %
08.05.2019 14:50 11,8 C 10,6 C 10,0 C 89 % 996,6 hPa 0,2 l/m 0 min 2 min 154 W/m 22,5 km/h (4 Bft) 97,87 %
08.05.2019 14:52 11,8 C 10,6 C 10,0 C 89 % 996,5 hPa 0,0 l/m 0 min 2 min 142 W/m 12,9 km/h (3 Bft) 95,65 %
08.05.2019 14:54 11,8 C 10,0 C 10,0 C 89 % 996,6 hPa 0,0 l/m 0 min 2 min 131 W/m 25,7 km/h (4 Bft) 95,74 %
08.05.2019 14:56 11,8 C 10,0 C 10,0 C 89 % 996,5 hPa 0,0 l/m 0 min 2 min 119 W/m 22,5 km/h (4 Bft) 95,74 %
08.05.2019 14:58 11,8 C 10,0 C 10,0 C 90 % 996,5 hPa 0,0 l/m 0 min 2 min 133 W/m 16,1 km/h (3 Bft) 93,62 %
08.05.2019 15:00 11,8 C 10,0 C 10,0 C 90 % 996,4 hPa 0,0 l/m 0 min 2 min 135 W/m 22,5 km/h (4 Bft) 97,87 %
08.05.2019 15:02 11,8 C 10,0 C 10,0 C 90 % 996,4 hPa 0,2 l/m 0 min 2 min 141 W/m 22,5 km/h (4 Bft) 97,87 %
08.05.2019 15:04 11,8 C 10,0 C 10,0 C 90 % 996,3 hPa 0,0 l/m 0 min 2 min 156 W/m 22,5 km/h (4 Bft) 95,65 %
08.05.2019 15:06 11,8 C 10,0 C 10,0 C 90 % 996,2 hPa 0,0 l/m 0 min 2 min 160 W/m 19,3 km/h (3 Bft) 95,74 %
08.05.2019 15:08 11,7 C 10,0 C 10,0 C 90 % 996,2 hPa 0,0 l/m 0 min 2 min 147 W/m 22,5 km/h (4 Bft) 93,62 %
08.05.2019 15:10 11,7 C 10,0 C 10,0 C 91 % 996,2 hPa 0,0 l/m 0 min 2 min 164 W/m 25,7 km/h (4 Bft) 95,92 %
08.05.2019 15:12 11,7 C 10,0 C 10,0 C 91 % 996,2 hPa 0,0 l/m 0 min 2 min 147 W/m 29,0 km/h (5 Bft) 93,62 %
08.05.2019 15:14 11,7 C 10,0 C 10,0 C 91 % 996,1 hPa 0,0 l/m 0 min 2 min 137 W/m 25,7 km/h (4 Bft) 95,74 %
08.05.2019 15:16 11,6 C 10,0 C 10,0 C 91 % 996,1 hPa 0,0 l/m 0 min 2 min 162 W/m 25,7 km/h (4 Bft) 97,83 %
08.05.2019 15:18 11,6 C 10,0 C 10,0 C 91 % 996,0 hPa 0,0 l/m 0 min 2 min 178 W/m 16,1 km/h (3 Bft) 95,74 %
08.05.2019 15:20 11,6 C 10,6 C 10,0 C 91 % 996,0 hPa 0,0 l/m 0 min 2 min 183 W/m 19,3 km/h (3 Bft) 95,74 %
08.05.2019 15:22 11,6 C 10,0 C 10,0 C 92 % 996,0 hPa 0,0 l/m 0 min 2 min 191 W/m 29,0 km/h (5 Bft) 97,87 %
08.05.2019 15:24 11,6 C 10,0 C 10,0 C 92 % 996,0 hPa 0,0 l/m 0 min 2 min 150 W/m 29,0 km/h (5 Bft) 97,87 %
08.05.2019 15:26 11,6 C 10,0 C 9,4 C 92 % 996,0 hPa 0,0 l/m 0 min 2 min 100 W/m 25,7 km/h (4 Bft) 97,87 %
08.05.2019 15:28 11,5 C 10,0 C 9,4 C 92 % 996,0 hPa 0,0 l/m 0 min 2 min 76 W/m 22,5 km/h (4 Bft) 95,65 %
08.05.2019 15:30 11,5 C 10,0 C 9,4 C 92 % 995,9 hPa 0,0 l/m 0 min 2 min 70 W/m 19,3 km/h (3 Bft) 97,87 %
08.05.2019 15:32 11,4 C 10,0 C 9,4 C 92 % 996,0 hPa 0,2 l/m 0 min 2 min 77 W/m 32,2 km/h (5 Bft) 97,87 %
08.05.2019 15:34 11,4 C 10,0 C 9,4 C 92 % 995,9 hPa 0,0 l/m 0 min 2 min 82 W/m 25,7 km/h (4 Bft) 97,87 %
08.05.2019 15:36 11,4 C 10,0 C 9,4 C 92 % 996,0 hPa 0,0 l/m 0 min 2 min 86 W/m 22,5 km/h (4 Bft) 97,87 %
08.05.2019 15:38 11,3 C 10,0 C 9,4 C 92 % 995,9 hPa 0,0 l/m 0 min 2 min 111 W/m 19,3 km/h (3 Bft) 93,62 %
08.05.2019 15:40 11,3 C 10,0 C 9,4 C 92 % 995,9 hPa 0,0 l/m 0 min 2 min 115 W/m 25,7 km/h (4 Bft) 93,48 %
08.05.2019 15:42 11,3 C 10,0 C 9,4 C 93 % 995,9 hPa 0,0 l/m 0 min 2 min 118 W/m 19,3 km/h (3 Bft) 95,74 %
08.05.2019 15:44 11,3 C 10,0 C 9,4 C 93 % 995,9 hPa 0,0 l/m 0 min 2 min 120 W/m 22,5 km/h (4 Bft) 97,87 %
08.05.2019 15:46 11,3 C 10,0 C 10,0 C 93 % 995,9 hPa 0,0 l/m 0 min 2 min 119 W/m 16,1 km/h (3 Bft) 95,74 %
08.05.2019 15:48 11,3 C 10,0 C 9,4 C 93 % 995,9 hPa 0,0 l/m 0 min 2 min 117 W/m 16,1 km/h (3 Bft) 97,87 %
08.05.2019 15:50 11,3 C 10,0 C 9,4 C 93 % 995,9 hPa 0,2 l/m 0 min 2 min 117 W/m 25,7 km/h (4 Bft) 95,74 %
08.05.2019 15:52 11,3 C 10,0 C 9,4 C 93 % 995,9 hPa 0,0 l/m 0 min 2 min 114 W/m 32,2 km/h (5 Bft) 97,83 %
08.05.2019 15:54 11,3 C 10,0 C 9,4 C 93 % 995,8 hPa 0,0 l/m 0 min 2 min 107 W/m 12,9 km/h (3 Bft) 97,87 %
08.05.2019 15:56 11,2 C 10,0 C 9,4 C 93 % 995,8 hPa 0,0 l/m 0 min 2 min 90 W/m 22,5 km/h (4 Bft) 97,87 %
08.05.2019 15:58 11,2 C 10,0 C 9,4 C 93 % 995,8 hPa 0,0 l/m 0 min 2 min 100 W/m 25,7 km/h (4 Bft) 95,74 %
08.05.2019 16:00 11,2 C 10,0 C 10,0 C 93 % 995,8 hPa 0,0 l/m 0 min 2 min 99 W/m 9,7 km/h (2 Bft) 97,87 %
08.05.2019 16:02 11,2 C 10,0 C 9,4 C 94 % 995,7 hPa 0,0 l/m 0 min 2 min 88 W/m 25,7 km/h (4 Bft) 97,87 %
08.05.2019 16:04 11,2 C 10,0 C 9,4 C 94 % 995,6 hPa 0,0 l/m 0 min 2 min 87 W/m 12,9 km/h (3 Bft) 95,65 %
08.05.2019 16:06 11,2 C 10,0 C 9,4 C 94 % 995,4 hPa 0,0 l/m 0 min 2 min 86 W/m 19,3 km/h (3 Bft) 97,87 %
08.05.2019 16:08 11,2 C 10,0 C 9,4 C 94 % 995,4 hPa 0,2 l/m 0 min 2 min 82 W/m 19,3 km/h (3 Bft) 95,74 %
08.05.2019 16:10 11,2 C 10,0 C 9,4 C 94 % 995,3 hPa 0,0 l/m 0 min 2 min 81 W/m 29,0 km/h (5 Bft) 97,87 %
08.05.2019 16:12 11,2 C 10,0 C 9,4 C 94 % 995,1 hPa 0,0 l/m 0 min 2 min 86 W/m 22,5 km/h (4 Bft) 97,87 %
08.05.2019 16:14 11,2 C 10,0 C 9,4 C 94 % 994,9 hPa 0,2 l/m 0 min 2 min 89 W/m 19,3 km/h (3 Bft) 97,83 %
08.05.2019 16:16 11,2 C 10,0 C 9,4 C 94 % 994,8 hPa 0,0 l/m 0 min 2 min 91 W/m 29,0 km/h (5 Bft) 95,74 %
08.05.2019 16:18 11,2 C 10,0 C 9,4 C 94 % 994,8 hPa 0,0 l/m 0 min 2 min 94 W/m 16,1 km/h (3 Bft) 97,87 %
08.05.2019 16:20 11,2 C 10,0 C 9,4 C 94 % 994,9 hPa 0,0 l/m 0 min 2 min 97 W/m 22,5 km/h (4 Bft) 97,87 %
08.05.2019 16:22 11,2 C 10,0 C 10,0 C 94 % 995,0 hPa 0,0 l/m 0 min 2 min 101 W/m 19,3 km/h (3 Bft) 97,87 %
08.05.2019 16:24 11,2 C 10,0 C 10,0 C 94 % 995,0 hPa 0,0 l/m 0 min 2 min 100 W/m 16,1 km/h (3 Bft) 100,00 %
08.05.2019 16:26 11,2 C 10,0 C 10,0 C 94 % 994,9 hPa 0,0 l/m 0 min 2 min 102 W/m 19,3 km/h (3 Bft) 100,00 %
08.05.2019 16:28 11,3 C 10,6 C 10,0 C 94 % 994,9 hPa 0,0 l/m 0 min 0 min 113 W/m 16,1 km/h (3 Bft) 97,87 %
08.05.2019 16:30 11,3 C 10,6 C 10,0 C 94 % 994,9 hPa 0,0 l/m 0 min 0 min 111 W/m 19,3 km/h (3 Bft) 97,87 %
08.05.2019 16:32 11,3 C 10,6 C 10,0 C 95 % 994,9 hPa 0,0 l/m 0 min 0 min 110 W/m 22,5 km/h (4 Bft) 100,00 %
08.05.2019 16:34 11,3 C 10,6 C 10,0 C 95 % 994,8 hPa 0,0 l/m 0 min 0 min 110 W/m 25,7 km/h (4 Bft) 100,00 %
08.05.2019 16:36 11,3 C 10,6 C 10,0 C 95 % 994,8 hPa 0,0 l/m 0 min 0 min 109 W/m 16,1 km/h (3 Bft) 100,00 %
08.05.2019 16:38 11,3 C 10,6 C 10,0 C 95 % 994,8 hPa 0,0 l/m 0 min 0 min 106 W/m 22,5 km/h (4 Bft) 100,00 %
08.05.2019 16:40 11,3 C 10,6 C 10,0 C 95 % 994,8 hPa 0,0 l/m 0 min 0 min 103 W/m 22,5 km/h (4 Bft) 100,00 %
08.05.2019 16:42 11,3 C 10,6 C 10,0 C 95 % 994,8 hPa 0,0 l/m 0 min 0 min 109 W/m 29,0 km/h (5 Bft) 100,00 %
08.05.2019 16:44 11,4 C 10,6 C 10,0 C 95 % 994,8 hPa 0,0 l/m 0 min 0 min 114 W/m 12,9 km/h (3 Bft) 100,00 %
08.05.2019 16:46 11,4 C 10,6 C 10,0 C 95 % 994,8 hPa 0,0 l/m 0 min 0 min 114 W/m 25,7 km/h (4 Bft) 100,00 %
08.05.2019 16:48 11,4 C 10,6 C 10,6 C 95 % 994,8 hPa 0,0 l/m 0 min 0 min 110 W/m 12,9 km/h (3 Bft) 97,87 %
08.05.2019 16:50 11,4 C 10,6 C 10,6 C 95 % 994,8 hPa 0,0 l/m 0 min 0 min 101 W/m 22,5 km/h (4 Bft) 100,00 %
08.05.2019 16:52 11,4 C 10,6 C 10,0 C 95 % 994,8 hPa 0,0 l/m 0 min 0 min 89 W/m 22,5 km/h (4 Bft) 100,00 %
08.05.2019 16:54 11,4 C 10,6 C 10,0 C 95 % 994,6 hPa 0,0 l/m 0 min 0 min 78 W/m 12,9 km/h (3 Bft) 100,00 %
08.05.2019 16:56 11,5 C 10,6 C 10,0 C 95 % 994,4 hPa 0,0 l/m 0 min 2 min 74 W/m 22,5 km/h (4 Bft) 100,00 %
08.05.2019 16:58 11,5 C 10,6 C 10,0 C 95 % 994,4 hPa 0,0 l/m 0 min 2 min 76 W/m 19,3 km/h (3 Bft) 100,00 %
08.05.2019 17:00 11,5 C 10,6 C 10,0 C 95 % 994,4 hPa 0,0 l/m 0 min 2 min 82 W/m 25,7 km/h (4 Bft) 100,00 %
08.05.2019 17:02 11,5 C 10,6 C 10,0 C 95 % 994,4 hPa 0,0 l/m 0 min 2 min 90 W/m 19,3 km/h (3 Bft) 95,65 %
08.05.2019 17:04 11,5 C 10,6 C 10,0 C 95 % 994,4 hPa 0,0 l/m 0 min 0 min 92 W/m 25,7 km/h (4 Bft) 100,00 %
08.05.2019 17:06 11,5 C 10,6 C 10,0 C 95 % 994,4 hPa 0,0 l/m 0 min 0 min 89 W/m 25,7 km/h (4 Bft) 97,87 %
08.05.2019 17:08 11,6 C 10,6 C 10,0 C 95 % 994,4 hPa 0,0 l/m 0 min 2 min 90 W/m 16,1 km/h (3 Bft) 100,00 %
08.05.2019 17:10 11,6 C 10,6 C 10,0 C 95 % 994,4 hPa 0,0 l/m 0 min 0 min 84 W/m 25,7 km/h (4 Bft) 100,00 %
08.05.2019 17:12 11,6 C 10,6 C 10,0 C 96 % 994,3 hPa 0,0 l/m 0 min 2 min 75 W/m 22,5 km/h (4 Bft) 100,00 %
08.05.2019 17:14 11,6 C 10,6 C 10,0 C 95 % 994,3 hPa 0,0 l/m 0 min 2 min 83 W/m 19,3 km/h (3 Bft) 100,00 %
08.05.2019 17:16 11,6 C 10,6 C 10,0 C 95 % 994,3 hPa 0,0 l/m 0 min 0 min 90 W/m 25,7 km/h (4 Bft) 100,00 %
08.05.2019 17:18 11,6 C 10,6 C 10,0 C 95 % 994,2 hPa 0,0 l/m 0 min 0 min 85 W/m 16,1 km/h (3 Bft) 100,00 %
08.05.2019 17:20 11,6 C 10,6 C 10,0 C 95 % 994,3 hPa 0,0 l/m 0 min 0 min 81 W/m 16,1 km/h (3 Bft) 100,00 %
08.05.2019 17:22 11,6 C 10,6 C 10,0 C 95 % 994,3 hPa 0,0 l/m 0 min 0 min 74 W/m 16,1 km/h (3 Bft) 100,00 %
08.05.2019 17:24 11,6 C 10,6 C 10,0 C 96 % 994,2 hPa 0,0 l/m 0 min 0 min 62 W/m 29,0 km/h (5 Bft) 97,83 %
08.05.2019 17:26 11,6 C 10,6 C 10,0 C 96 % 994,2 hPa 0,0 l/m 0 min 2 min 55 W/m 22,5 km/h (4 Bft) 100,00 %
08.05.2019 17:28 11,6 C 10,6 C 10,0 C 96 % 994,1 hPa 0,0 l/m 0 min 2 min 50 W/m 22,5 km/h (4 Bft) 95,74 %
08.05.2019 17:30 11,6 C 10,6 C 10,0 C 96 % 994,1 hPa 0,2 l/m 0 min 2 min 65 W/m 12,9 km/h (3 Bft) 97,87 %
08.05.2019 17:32 11,6 C 10,6 C 10,0 C 96 % 994,0 hPa 0,2 l/m 0 min 2 min 76 W/m 19,3 km/h (3 Bft) 97,87 %
08.05.2019 17:34 11,6 C 10,6 C 10,0 C 96 % 994,0 hPa 0,0 l/m 0 min 2 min 64 W/m 16,1 km/h (3 Bft) 97,87 %
08.05.2019 17:36 11,6 C 10,6 C 10,0 C 96 % 993,9 hPa 0,0 l/m 0 min 2 min 44 W/m 22,5 km/h (4 Bft) 95,65 %
08.05.2019 17:38 11,6 C 10,6 C 10,0 C 96 % 993,9 hPa 0,2 l/m 0 min 2 min 32 W/m 29,0 km/h (5 Bft) 97,87 %
08.05.2019 17:40 11,6 C 10,6 C 10,0 C 96 % 993,9 hPa 0,0 l/m 0 min 2 min 37 W/m 35,4 km/h (5 Bft) 97,87 %
08.05.2019 17:42 11,6 C 10,6 C 10,0 C 96 % 993,8 hPa 0,0 l/m 0 min 2 min 35 W/m 19,3 km/h (3 Bft) 93,62 %
08.05.2019 17:44 11,6 C 10,6 C 10,0 C 96 % 993,8 hPa 0,0 l/m 0 min 2 min 33 W/m 22,5 km/h (4 Bft) 97,87 %
08.05.2019 17:46 11,6 C 10,6 C 10,0 C 96 % 993,9 hPa 0,2 l/m 0 min 2 min 29 W/m 25,7 km/h (4 Bft) 95,74 %
08.05.2019 17:48 11,6 C 10,6 C 10,0 C 96 % 993,9 hPa 0,2 l/m 0 min 2 min 28 W/m 22,5 km/h (4 Bft) 95,65 %
08.05.2019 17:50 11,6 C 10,6 C 10,0 C 96 % 993,9 hPa 0,2 l/m 0 min 2 min 26 W/m 22,5 km/h (4 Bft) 95,74 %
08.05.2019 17:52 11,6 C 10,6 C 10,0 C 96 % 994,0 hPa 0,0 l/m 0 min 2 min 24 W/m 25,7 km/h (4 Bft) 91,49 %
08.05.2019 17:54 11,6 C 10,6 C 10,0 C 96 % 993,9 hPa 0,2 l/m 0 min 2 min 21 W/m 12,9 km/h (3 Bft) 93,62 %
08.05.2019 17:56 11,6 C 10,6 C 10,0 C 96 % 993,8 hPa 0,2 l/m 0 min 2 min 18 W/m 22,5 km/h (4 Bft) 93,62 %
08.05.2019 17:58 11,6 C 10,6 C 10,0 C 96 % 993,9 hPa 0,4 l/m 0 min 2 min 16 W/m 22,5 km/h (4 Bft) 95,74 %
08.05.2019 18:00 11,6 C 10,6 C 10,0 C 96 % 993,9 hPa 0,0 l/m 0 min 2 min 21 W/m 16,1 km/h (3 Bft) 95,65 %
08.05.2019 18:02 11,6 C 10,6 C 10,0 C 96 % 993,9 hPa 0,0 l/m 0 min 2 min 22 W/m 16,1 km/h (3 Bft) 96,00 %
08.05.2019 18:04 11,6 C 10,6 C 10,0 C 96 % 993,9 hPa 0,2 l/m 0 min 2 min 21 W/m 38,6 km/h (5 Bft) 95,74 %
08.05.2019 18:07 11,6 C 10,6 C 10,0 C 96 % 994,3 hPa 0,2 l/m 0 min 3 min 12 W/m 25,7 km/h (4 Bft) 94,29 %
08.05.2019 18:08 11,6 C 10,6 C 10,0 C 96 % 994,3 hPa 0,0 l/m 0 min 1 min 19 W/m 16,1 km/h (3 Bft) 100,00 %
08.05.2019 18:10 11,6 C 10,6 C 10,0 C 96 % 994,2 hPa 0,0 l/m 0 min 2 min 24 W/m 19,3 km/h (3 Bft) 95,65 %
08.05.2019 18:12 11,6 C 10,6 C 10,0 C 96 % 994,1 hPa 0,0 l/m 0 min 2 min 22 W/m 19,3 km/h (3 Bft) 95,74 %
08.05.2019 18:14 11,6 C 10,6 C 10,0 C 96 % 994,3 hPa 0,2 l/m 0 min 2 min 25 W/m 32,2 km/h (5 Bft) 95,74 %
08.05.2019 18:16 11,6 C 10,6 C 10,0 C 96 % 994,3 hPa 0,0 l/m 0 min 2 min 30 W/m 25,7 km/h (4 Bft) 93,62 %
08.05.2019 18:18 11,6 C 10,6 C 10,0 C 96 % 994,2 hPa 0,2 l/m 0 min 2 min 33 W/m 29,0 km/h (5 Bft) 93,62 %
08.05.2019 18:20 11,6 C 10,6 C 10,0 C 96 % 994,1 hPa 0,0 l/m 0 min 2 min 45 W/m 12,9 km/h (3 Bft) 93,62 %
08.05.2019 18:22 11,6 C 10,6 C 10,0 C 96 % 994,1 hPa 0,0 l/m 0 min 2 min 52 W/m 9,7 km/h (2 Bft) 91,30 %
08.05.2019 18:24 11,6 C 10,6 C 10,0 C 96 % 994,1 hPa 0,0 l/m 0 min 0 min 60 W/m 19,3 km/h (3 Bft) 93,62 %
08.05.2019 18:26 11,6 C 10,6 C 10,0 C 96 % 994,1 hPa 0,0 l/m 0 min 0 min 68 W/m 22,5 km/h (4 Bft) 93,62 %
08.05.2019 18:28 11,6 C 10,6 C 10,0 C 96 % 994,1 hPa 0,0 l/m 0 min 0 min 72 W/m 22,5 km/h (4 Bft) 93,62 %
08.05.2019 18:30 11,7 C 11,1 C 10,6 C 96 % 994,0 hPa 0,0 l/m 0 min 0 min 76 W/m 9,7 km/h (2 Bft) 93,62 %
08.05.2019 18:32 11,7 C 11,1 C 10,6 C 96 % 994,1 hPa 0,0 l/m 0 min 0 min 74 W/m 12,9 km/h (3 Bft) 91,49 %
08.05.2019 18:34 11,7 C 11,1 C 10,6 C 96 % 994,0 hPa 0,0 l/m 0 min 0 min 72 W/m 12,9 km/h (3 Bft) 93,48 %
08.05.2019 18:36 11,7 C 11,1 C 10,6 C 96 % 994,0 hPa 0,0 l/m 0 min 0 min 69 W/m 6,4 km/h (2 Bft) 93,62 %
08.05.2019 18:38 11,7 C 11,1 C 10,6 C 96 % 994,0 hPa 0,0 l/m 0 min 0 min 66 W/m 9,7 km/h (2 Bft) 95,74 %
08.05.2019 18:40 11,7 C 11,1 C 10,6 C 96 % 994,0 hPa 0,0 l/m 0 min 0 min 72 W/m 9,7 km/h (2 Bft) 95,74 %
08.05.2019 18:42 11,7 C 11,1 C 10,6 C 96 % 993,9 hPa 0,0 l/m 0 min 0 min 76 W/m 9,7 km/h (2 Bft) 95,74 %
08.05.2019 18:44 11,7 C 11,1 C 10,6 C 96 % 993,9 hPa 0,0 l/m 0 min 0 min 77 W/m 6,4 km/h (2 Bft) 97,87 %
08.05.2019 18:46 11,7 C 11,1 C 10,6 C 97 % 993,9 hPa 0,0 l/m 0 min 0 min 71 W/m 12,9 km/h (3 Bft) 97,83 %
08.05.2019 18:48 11,7 C 11,1 C 10,6 C 97 % 993,9 hPa 0,0 l/m 0 min 0 min 65 W/m 9,7 km/h (2 Bft) 97,87 %
08.05.2019 18:50 11,8 C 11,1 C 10,6 C 97 % 993,9 hPa 0,0 l/m 0 min 0 min 63 W/m 12,9 km/h (3 Bft) 95,74 %
08.05.2019 18:52 11,8 C 11,1 C 10,6 C 97 % 993,8 hPa 0,0 l/m 0 min 0 min 67 W/m 9,7 km/h (2 Bft) 95,74 %
08.05.2019 18:54 11,8 C 11,1 C 10,6 C 97 % 993,8 hPa 0,0 l/m 0 min 0 min 71 W/m 6,4 km/h (2 Bft) 97,87 %
08.05.2019 18:56 11,8 C 11,1 C 10,6 C 97 % 993,7 hPa 0,0 l/m 0 min 0 min 72 W/m 9,7 km/h (2 Bft) 97,83 %
08.05.2019 18:58 11,8 C 11,1 C 10,6 C 97 % 993,6 hPa 0,0 l/m 0 min 0 min 72 W/m 9,7 km/h (2 Bft) 100,00 %
08.05.2019 19:00 11,8 C 11,1 C 10,6 C 97 % 993,7 hPa 0,0 l/m 0 min 0 min 70 W/m 9,7 km/h (2 Bft) 100,00 %
08.05.2019 19:02 11,8 C 11,1 C 10,6 C 97 % 993,7 hPa 0,0 l/m 0 min 0 min 66 W/m 6,4 km/h (2 Bft) 100,00 %
08.05.2019 19:04 11,8 C 11,1 C 10,6 C 97 % 993,8 hPa 0,0 l/m 0 min 0 min 60 W/m 12,9 km/h (3 Bft) 100,00 %
08.05.2019 19:06 11,8 C 11,1 C 10,6 C 97 % 993,8 hPa 0,0 l/m 0 min 0 min 54 W/m 12,9 km/h (3 Bft) 100,00 %
08.05.2019 19:08 11,8 C 11,1 C 10,6 C 97 % 993,8 hPa 0,0 l/m 0 min 0 min 52 W/m 6,4 km/h (2 Bft) 95,65 %
08.05.2019 19:10 11,8 C 11,1 C 10,6 C 97 % 993,9 hPa 0,0 l/m 0 min 0 min 46 W/m 12,9 km/h (3 Bft) 97,87 %
08.05.2019 19:12 11,8 C 11,1 C 10,6 C 97 % 994,0 hPa 0,0 l/m 0 min 0 min 37 W/m 6,4 km/h (2 Bft) 97,87 %
08.05.2019 19:14 11,8 C 11,1 C 10,6 C 97 % 994,1 hPa 0,0 l/m 0 min 0 min 30 W/m 0,0 km/h (0 Bft) 100,00 %
08.05.2019 19:16 11,9 C 11,1 C 10,6 C 97 % 994,0 hPa 0,0 l/m 0 min 0 min 28 W/m 6,4 km/h (2 Bft) 100,00 %
08.05.2019 19:18 11,9 C 11,1 C 10,6 C 97 % 994,0 hPa 0,0 l/m 0 min 0 min 30 W/m 9,7 km/h (2 Bft) 100,00 %
08.05.2019 19:20 11,9 C 11,1 C 10,6 C 97 % 993,9 hPa 0,0 l/m 0 min 0 min 30 W/m 12,9 km/h (3 Bft) 100,00 %
08.05.2019 19:22 11,9 C 11,1 C 10,6 C 97 % 994,0 hPa 0,0 l/m 0 min 0 min 30 W/m 6,4 km/h (2 Bft) 100,00 %
08.05.2019 19:24 11,8 C 11,1 C 10,6 C 97 % 994,1 hPa 0,0 l/m 0 min 0 min 32 W/m 6,4 km/h (2 Bft) 100,00 %
08.05.2019 19:26 11,9 C 11,1 C 10,6 C 97 % 994,1 hPa 0,0 l/m 0 min 0 min 38 W/m 9,7 km/h (2 Bft) 100,00 %
08.05.2019 19:28 11,9 C 11,1 C 10,6 C 97 % 994,1 hPa 0,0 l/m 0 min 0 min 44 W/m 12,9 km/h (3 Bft) 100,00 %
08.05.2019 19:30 11,9 C 11,1 C 10,6 C 97 % 994,0 hPa 0,0 l/m 0 min 0 min 50 W/m 6,4 km/h (2 Bft) 100,00 %
08.05.2019 19:32 11,9 C 11,1 C 10,6 C 97 % 994,0 hPa 0,0 l/m 0 min 0 min 59 W/m 3,2 km/h (1 Bft) 100,00 %
08.05.2019 19:34 11,9 C 11,1 C 10,6 C 97 % 994,1 hPa 0,0 l/m 0 min 0 min 66 W/m 3,2 km/h (1 Bft) 100,00 %
08.05.2019 19:36 11,9 C 11,1 C 10,6 C 97 % 994,2 hPa 0,0 l/m 0 min 0 min 69 W/m 12,9 km/h (3 Bft) 100,00 %
08.05.2019 19:38 11,9 C 11,1 C 10,6 C 97 % 994,2 hPa 0,0 l/m 0 min 0 min 68 W/m 6,4 km/h (2 Bft) 100,00 %
08.05.2019 19:40 11,9 C 11,1 C 10,6 C 97 % 994,3 hPa 0,0 l/m 0 min 0 min 67 W/m 3,2 km/h (1 Bft) 100,00 %
08.05.2019 19:42 11,9 C 11,1 C 10,6 C 97 % 994,2 hPa 0,0 l/m 0 min 0 min 70 W/m 6,4 km/h (2 Bft) 100,00 %
08.05.2019 19:44 11,9 C 11,1 C 10,6 C 97 % 994,2 hPa 0,0 l/m 0 min 0 min 80 W/m 6,4 km/h (2 Bft) 100,00 %
08.05.2019 19:46 11,9 C 11,7 C 10,6 C 97 % 994,2 hPa 0,0 l/m 0 min 0 min 86 W/m 6,4 km/h (2 Bft) 100,00 %
08.05.2019 19:48 11,9 C 11,7 C 10,6 C 97 % 994,2 hPa 0,0 l/m 0 min 0 min 88 W/m 3,2 km/h (1 Bft) 100,00 %
08.05.2019 19:50 11,9 C 11,7 C 10,6 C 97 % 994,2 hPa 0,0 l/m 0 min 0 min 85 W/m 9,7 km/h (2 Bft) 100,00 %
08.05.2019 19:52 11,9 C 11,7 C 10,6 C 97 % 994,2 hPa 0,0 l/m 0 min 0 min 82 W/m 3,2 km/h (1 Bft) 97,87 %
08.05.2019 19:54 11,9 C 11,7 C 10,6 C 97 % 994,1 hPa 0,0 l/m 0 min 0 min 78 W/m 6,4 km/h (2 Bft) 100,00 %
08.05.2019 19:56 11,9 C 11,1 C 10,6 C 97 % 994,1 hPa 0,0 l/m 0 min 0 min 71 W/m 9,7 km/h (2 Bft) 97,83 %
08.05.2019 19:58 11,9 C 11,1 C 10,6 C 97 % 994,0 hPa 0,0 l/m 0 min 0 min 67 W/m 6,4 km/h (2 Bft) 100,00 %
08.05.2019 20:00 12,0 C 11,1 C 10,6 C 97 % 994,0 hPa 0,0 l/m 0 min 0 min 62 W/m 0,0 km/h (0 Bft) 100,00 %
08.05.2019 20:02 11,9 C 11,1 C 10,6 C 97 % 994,1 hPa 0,0 l/m 0 min 0 min 51 W/m 3,2 km/h (1 Bft) 100,00 %
08.05.2019 20:04 11,9 C 11,1 C 10,6 C 97 % 994,1 hPa 0,0 l/m 0 min 0 min 45 W/m 6,4 km/h (2 Bft) 100,00 %
08.05.2019 20:06 11,9 C 11,1 C 10,6 C 97 % 994,0 hPa 0,0 l/m 0 min 0 min 38 W/m 12,9 km/h (3 Bft) 95,74 %
08.05.2019 20:08 11,9 C 11,1 C 10,6 C 97 % 993,9 hPa 0,0 l/m 0 min 0 min 33 W/m 6,4 km/h (2 Bft) 97,83 %
08.05.2019 20:10 11,9 C 11,1 C 10,6 C 97 % 993,9 hPa 0,0 l/m 0 min 0 min 32 W/m 9,7 km/h (2 Bft) 100,00 %
08.05.2019 20:12 11,9 C 11,1 C 10,6 C 97 % 994,0 hPa 0,0 l/m 0 min 0 min 32 W/m 6,4 km/h (2 Bft) 100,00 %
08.05.2019 20:14 11,9 C 11,1 C 10,0 C 97 % 994,0 hPa 0,0 l/m 0 min 0 min 33 W/m 9,7 km/h (2 Bft) 100,00 %
08.05.2019 20:16 11,9 C 10,6 C 10,0 C 97 % 993,9 hPa 0,0 l/m 0 min 0 min 33 W/m 9,7 km/h (2 Bft) 97,87 %
08.05.2019 20:18 11,8 C 10,6 C 10,0 C 97 % 993,9 hPa 0,0 l/m 0 min 0 min 33 W/m 12,9 km/h (3 Bft) 100,00 %
08.05.2019 20:20 11,8 C 10,6 C 10,0 C 97 % 994,0 hPa 0,0 l/m 0 min 0 min 32 W/m 12,9 km/h (3 Bft) 100,00 %
08.05.2019 20:22 11,8 C 10,6 C 10,0 C 97 % 994,0 hPa 0,0 l/m 0 min 0 min 32 W/m 9,7 km/h (2 Bft) 100,00 %
08.05.2019 20:24 11,8 C 10,6 C 10,0 C 97 % 993,9 hPa 0,0 l/m 0 min 0 min 36 W/m 19,3 km/h (3 Bft) 100,00 %
08.05.2019 20:26 11,7 C 10,6 C 10,0 C 97 % 993,9 hPa 0,0 l/m 0 min 0 min 37 W/m 12,9 km/h (3 Bft) 100,00 %
08.05.2019 20:28 11,7 C 10,6 C 10,0 C 97 % 993,9 hPa 0,0 l/m 0 min 0 min 36 W/m 19,3 km/h (3 Bft) 100,00 %
08.05.2019 20:30 11,7 C 10,6 C 10,0 C 97 % 993,8 hPa 0,0 l/m 0 min 0 min 34 W/m 16,1 km/h (3 Bft) 100,00 %
08.05.2019 20:32 11,6 C 10,6 C 10,0 C 97 % 993,8 hPa 0,0 l/m 0 min 0 min 30 W/m 6,4 km/h (2 Bft) 100,00 %
08.05.2019 20:34 11,6 C 10,6 C 10,0 C 97 % 993,9 hPa 0,0 l/m 0 min 0 min 26 W/m 12,9 km/h (3 Bft) 100,00 %
08.05.2019 20:36 11,6 C 10,6 C 10,0 C 97 % 993,9 hPa 0,0 l/m 0 min 0 min 22 W/m 12,9 km/h (3 Bft) 95,74 %
08.05.2019 20:38 11,6 C 10,6 C 10,0 C 97 % 993,9 hPa 0,0 l/m 0 min 0 min 18 W/m 6,4 km/h (2 Bft) 97,87 %
08.05.2019 20:40 11,6 C 10,6 C 10,0 C 97 % 993,9 hPa 0,0 l/m 0 min 0 min 13 W/m 6,4 km/h (2 Bft) 97,87 %
08.05.2019 20:42 11,5 C 10,6 C 10,0 C 97 % 993,9 hPa 0,0 l/m 0 min 0 min 10 W/m 9,7 km/h (2 Bft) 97,83 %
08.05.2019 20:44 11,5 C 10,6 C 10,0 C 97 % 993,9 hPa 0,0 l/m 0 min 0 min 8 W/m 9,7 km/h (2 Bft) 97,87 %
08.05.2019 20:46 11,5 C 10,6 C 10,0 C 97 % 994,0 hPa 0,0 l/m 0 min 0 min 6 W/m 9,7 km/h (2 Bft) 95,74 %
08.05.2019 20:48 11,5 C 10,6 C 10,0 C 97 % 993,9 hPa 0,0 l/m 0 min 0 min 5 W/m 3,2 km/h (1 Bft) 97,87 %
08.05.2019 20:50 11,5 C 10,6 C 10,0 C 97 % 993,9 hPa 0,0 l/m 0 min 0 min 5 W/m 9,7 km/h (2 Bft) 97,87 %
08.05.2019 20:52 11,4 C 10,6 C 10,0 C 97 % 994,0 hPa 0,0 l/m 0 min 0 min 5 W/m 9,7 km/h (2 Bft) 91,49 %
08.05.2019 20:54 11,4 C 10,6 C 10,0 C 97 % 994,0 hPa 0,0 l/m 0 min 0 min 5 W/m 3,2 km/h (1 Bft) 91,30 %
08.05.2019 20:56 11,4 C 10,6 C 10,0 C 97 % 994,0 hPa 0,0 l/m 0 min 0 min 5 W/m 6,4 km/h (2 Bft) 93,62 %
08.05.2019 20:58 11,4 C 10,6 C 10,0 C 97 % 994,0 hPa 0,0 l/m 0 min 0 min 7 W/m 9,7 km/h (2 Bft) 93,62 %
08.05.2019 21:00 11,4 C 10,6 C 10,0 C 97 % 994,0 hPa 0,0 l/m 0 min 0 min 7 W/m 0,0 km/h (0 Bft) 93,62 %
08.05.2019 21:02 11,4 C 10,6 C 10,0 C 97 % 994,0 hPa 0,0 l/m 0 min 0 min 5 W/m 6,4 km/h (2 Bft) 91,49 %
08.05.2019 21:04 11,4 C 10,6 C 9,4 C 97 % 994,0 hPa 0,0 l/m 0 min 0 min 5 W/m 9,7 km/h (2 Bft) 93,62 %
08.05.2019 21:06 11,4 C 10,0 C 9,4 C 97 % 994,1 hPa 0,0 l/m 0 min 0 min 2 W/m 9,7 km/h (2 Bft) 93,48 %
08.05.2019 21:08 11,3 C 10,0 C 9,4 C 96 % 994,1 hPa 0,0 l/m 0 min 0 min 0 W/m 12,9 km/h (3 Bft) 91,49 %
08.05.2019 21:10 11,3 C 10,0 C 9,4 C 96 % 994,1 hPa 0,0 l/m 0 min 0 min 0 W/m 9,7 km/h (2 Bft) 93,62 %
08.05.2019 21:12 11,3 C 10,0 C 9,4 C 96 % 994,2 hPa 0,0 l/m 0 min 0 min 0 W/m 9,7 km/h (2 Bft) 91,49 %
08.05.2019 21:14 11,3 C 10,0 C 9,4 C 96 % 994,2 hPa 0,0 l/m 0 min 0 min 0 W/m 12,9 km/h (3 Bft) 89,36 %
08.05.2019 21:16 11,2 C 10,0 C 9,4 C 96 % 994,3 hPa 0,0 l/m 0 min 0 min 0 W/m 9,7 km/h (2 Bft) 93,62 %
08.05.2019 21:18 11,2 C 10,0 C 9,4 C 96 % 994,2 hPa 0,0 l/m 0 min 0 min 0 W/m 9,7 km/h (2 Bft) 93,48 %
08.05.2019 21:20 11,2 C 10,0 C 9,4 C 96 % 994,2 hPa 0,0 l/m 0 min 0 min 0 W/m 16,1 km/h (3 Bft) 93,62 %
08.05.2019 21:22 11,1 C 10,0 C 9,4 C 96 % 994,3 hPa 0,0 l/m 0 min 0 min 0 W/m 9,7 km/h (2 Bft) 89,36 %
08.05.2019 21:24 11,1 C 10,0 C 8,9 C 96 % 994,4 hPa 0,0 l/m 0 min 0 min 0 W/m 9,7 km/h (2 Bft) 91,49 %
08.05.2019 21:26 11,0 C 9,4 C 8,9 C 96 % 994,4 hPa 0,0 l/m 0 min 0 min 0 W/m 9,7 km/h (2 Bft) 91,49 %
08.05.2019 21:28 10,9 C 9,4 C 8,9 C 96 % 994,4 hPa 0,0 l/m 0 min 0 min 0 W/m 9,7 km/h (2 Bft) 93,62 %
08.05.2019 21:30 10,9 C 9,4 C 8,9 C 96 % 994,4 hPa 0,0 l/m 0 min 0 min 0 W/m 6,4 km/h (2 Bft) 95,65 %
08.05.2019 21:32 10,9 C 9,4 C 8,9 C 96 % 994,4 hPa 0,0 l/m 0 min 0 min 0 W/m 6,4 km/h (2 Bft) 94,29 %
08.05.2019 21:34 10,8 C 9,4 C 8,9 C 96 % 994,4 hPa 0,0 l/m 0 min 0 min 0 W/m 6,4 km/h (2 Bft) 95,74 %
08.05.2019 21:36 10,8 C 9,4 C 8,9 C 95 % 994,5 hPa 0,0 l/m 0 min 0 min 0 W/m 6,4 km/h (2 Bft) 96,61 %
08.05.2019 21:38 10,7 C 9,4 C 8,9 C 95 % 994,5 hPa 0,0 l/m 0 min 0 min 0 W/m 6,4 km/h (2 Bft) 95,74 %
08.05.2019 21:40 10,7 C 9,4 C 8,9 C 95 % 994,5 hPa 0,0 l/m 0 min 0 min 0 W/m 6,4 km/h (2 Bft) 97,14 %
08.05.2019 21:42 10,7 C 9,4 C 8,9 C 95 % 994,5 hPa 0,0 l/m 0 min 0 min 0 W/m 6,4 km/h (2 Bft) 97,87 %
08.05.2019 21:44 10,6 C 9,4 C 8,3 C 95 % 994,5 hPa 0,0 l/m 0 min 0 min 0 W/m 9,7 km/h (2 Bft) 97,87 %
08.05.2019 21:46 10,6 C 9,4 C 8,3 C 95 % 994,6 hPa 0,0 l/m 0 min 0 min 0 W/m 9,7 km/h (2 Bft) 95,65 %
08.05.2019 21:48 10,6 C 8,9 C 8,3 C 95 % 994,5 hPa 0,0 l/m 0 min 0 min 0 W/m 9,7 km/h (2 Bft) 97,87 %
08.05.2019 21:50 10,5 C 8,9 C 8,3 C 95 % 994,6 hPa 0,0 l/m 0 min 0 min 0 W/m 9,7 km/h (2 Bft) 100,00 %
08.05.2019 21:52 10,4 C 8,9 C 8,3 C 95 % 994,6 hPa 0,0 l/m 0 min 0 min 0 W/m 9,7 km/h (2 Bft) 97,87 %
08.05.2019 21:54 10,4 C 8,9 C 8,3 C 95 % 994,6 hPa 0,0 l/m 0 min 0 min 0 W/m 9,7 km/h (2 Bft) 100,00 %
08.05.2019 21:56 10,4 C 8,9 C 8,3 C 95 % 994,7 hPa 0,0 l/m 0 min 0 min 0 W/m 6,4 km/h (2 Bft) 97,83 %
08.05.2019 21:58 10,3 C 8,9 C 8,3 C 95 % 994,7 hPa 0,0 l/m 0 min 0 min 0 W/m 6,4 km/h (2 Bft) 95,74 %
08.05.2019 22:00 10,3 C 8,9 C 8,3 C 95 % 994,7 hPa 0,0 l/m 0 min 0 min 0 W/m 6,4 km/h (2 Bft) 100,00 %
08.05.2019 22:02 10,2 C 8,9 C 8,3 C 95 % 994,8 hPa 0,0 l/m 0 min 0 min 0 W/m 6,4 km/h (2 Bft) 100,00 %
08.05.2019 22:04 10,2 C 8,9 C 8,3 C 95 % 994,8 hPa 0,0 l/m 0 min 0 min 0 W/m 6,4 km/h (2 Bft) 100,00 %
08.05.2019 22:06 10,2 C 8,9 C 8,3 C 95 % 994,8 hPa 0,0 l/m 0 min 0 min 0 W/m 12,9 km/h (3 Bft) 98,28 %
08.05.2019 22:08 10,2 C 8,9 C 8,3 C 95 % 994,8 hPa 0,0 l/m 0 min 0 min 0 W/m 12,9 km/h (3 Bft) 100,00 %
08.05.2019 22:10 10,1 C 8,9 C 8,3 C 95 % 994,8 hPa 0,0 l/m 0 min 0 min 0 W/m 12,9 km/h (3 Bft) 100,00 %
08.05.2019 22:12 10,1 C 8,9 C 8,3 C 95 % 994,8 hPa 0,0 l/m 0 min 0 min 0 W/m 12,9 km/h (3 Bft) 100,00 %
08.05.2019 22:14 10,1 C 8,9 C 8,3 C 95 % 994,9 hPa 0,0 l/m 0 min 0 min 0 W/m 12,9 km/h (3 Bft) 100,00 %
08.05.2019 22:16 10,0 C 8,9 C 8,3 C 95 % 994,9 hPa 0,0 l/m 0 min 0 min 0 W/m 12,9 km/h (3 Bft) 100,00 %
08.05.2019 22:18 10,0 C 8,9 C 8,3 C 95 % 994,9 hPa 0,0 l/m 0 min 0 min 0 W/m 12,9 km/h (3 Bft) 97,87 %
08.05.2019 22:20 10,0 C 8,9 C 8,3 C 95 % 994,8 hPa 0,0 l/m 0 min 0 min 0 W/m 6,4 km/h (2 Bft) 100,00 %
08.05.2019 22:22 9,9 C 8,9 C 8,3 C 95 % 994,8 hPa 0,0 l/m 0 min 0 min 0 W/m 6,4 km/h (2 Bft) 97,87 %
08.05.2019 22:24 9,9 C 8,9 C 8,3 C 95 % 994,8 hPa 0,0 l/m 0 min 0 min 0 W/m 16,1 km/h (3 Bft) 97,87 %
08.05.2019 22:26 9,9 C 9,4 C 8,3 C 95 % 994,9 hPa 0,0 l/m 0 min 0 min 0 W/m 12,9 km/h (3 Bft) 100,00 %
08.05.2019 22:28 9,9 C 9,4 C 8,3 C 94 % 994,9 hPa 0,0 l/m 0 min 0 min 0 W/m 6,4 km/h (2 Bft) 97,87 %
08.05.2019 22:30 9,9 C 9,4 C 8,3 C 94 % 994,9 hPa 0,0 l/m 0 min 0 min 0 W/m 16,1 km/h (3 Bft) 100,00 %
08.05.2019 22:32 9,9 C 9,4 C 8,3 C 94 % 994,9 hPa 0,0 l/m 0 min 0 min 0 W/m 12,9 km/h (3 Bft) 97,83 %
08.05.2019 22:34 9,9 C 9,4 C 8,3 C 94 % 994,9 hPa 0,0 l/m 0 min 0 min 0 W/m 9,7 km/h (2 Bft) 97,87 %
08.05.2019 22:36 9,9 C 9,4 C 8,3 C 94 % 994,9 hPa 0,0 l/m 0 min 0 min 0 W/m 9,7 km/h (2 Bft) 100,00 %
08.05.2019 22:38 9,8 C 9,4 C 8,3 C 94 % 994,9 hPa 0,0 l/m 0 min 0 min 0 W/m 6,4 km/h (2 Bft) 100,00 %
08.05.2019 22:40 9,8 C 9,4 C 8,3 C 94 % 994,9 hPa 0,0 l/m 0 min 0 min 0 W/m 6,4 km/h (2 Bft) 100,00 %
08.05.2019 22:42 9,8 C 9,4 C 8,3 C 94 % 994,9 hPa 0,0 l/m 0 min 0 min 0 W/m 6,4 km/h (2 Bft) 100,00 %
08.05.2019 22:44 9,8 C 8,9 C 8,3 C 94 % 994,9 hPa 0,0 l/m 0 min 0 min 0 W/m 3,2 km/h (1 Bft) 100,00 %
08.05.2019 22:46 9,8 C 8,9 C 8,3 C 94 % 994,9 hPa 0,0 l/m 0 min 0 min 0 W/m 12,9 km/h (3 Bft) 100,00 %
08.05.2019 22:48 9,8 C 8,9 C 8,3 C 94 % 994,9 hPa 0,0 l/m 0 min 0 min 0 W/m 3,2 km/h (1 Bft) 100,00 %
08.05.2019 22:50 9,8 C 8,9 C 8,3 C 94 % 994,9 hPa 0,0 l/m 0 min 0 min 0 W/m 12,9 km/h (3 Bft) 100,00 %
08.05.2019 22:52 9,8 C 8,9 C 8,3 C 94 % 994,9 hPa 0,0 l/m 0 min 0 min 0 W/m 9,7 km/h (2 Bft) 100,00 %
08.05.2019 22:54 9,8 C 8,9 C 8,3 C 94 % 994,9 hPa 0,0 l/m 0 min 0 min 0 W/m 6,4 km/h (2 Bft) 100,00 %
08.05.2019 22:56 9,8 C 8,9 C 8,3 C 94 % 994,9 hPa 0,0 l/m 0 min 0 min 0 W/m 6,4 km/h (2 Bft) 100,00 %
08.05.2019 22:58 9,8 C 8,9 C 8,3 C 94 % 994,9 hPa 0,0 l/m 0 min 0 min 0 W/m 9,7 km/h (2 Bft) 100,00 %
08.05.2019 23:00 9,8 C 8,9 C 8,3 C 94 % 994,9 hPa 0,0 l/m 0 min 0 min 0 W/m 12,9 km/h (3 Bft) 100,00 %
08.05.2019 23:02 9,8 C 9,4 C 8,3 C 94 % 994,9 hPa 0,0 l/m 0 min 0 min 0 W/m 9,7 km/h (2 Bft) 100,00 %
08.05.2019 23:04 9,7 C 8,9 C 8,3 C 94 % 994,9 hPa 0,0 l/m 0 min 0 min 0 W/m 9,7 km/h (2 Bft) 100,00 %
08.05.2019 23:06 9,7 C 9,4 C 8,3 C 94 % 994,9 hPa 0,0 l/m 0 min 0 min 0 W/m 12,9 km/h (3 Bft) 98,28 %
08.05.2019 23:08 9,7 C 8,9 C 7,8 C 94 % 994,8 hPa 0,0 l/m 0 min 0 min 0 W/m 12,9 km/h (3 Bft) 100,00 %
08.05.2019 23:10 9,7 C 8,9 C 7,8 C 94 % 994,9 hPa 0,0 l/m 0 min 0 min 0 W/m 6,4 km/h (2 Bft) 100,00 %
08.05.2019 23:12 9,7 C 8,9 C 7,8 C 94 % 995,0 hPa 0,0 l/m 0 min 0 min 0 W/m 12,9 km/h (3 Bft) 100,00 %
08.05.2019 23:14 9,7 C 8,9 C 7,8 C 94 % 994,9 hPa 0,0 l/m 0 min 0 min 0 W/m 12,9 km/h (3 Bft) 100,00 %
08.05.2019 23:16 9,7 C 8,9 C 7,8 C 94 % 995,0 hPa 0,0 l/m 0 min 0 min 0 W/m 12,9 km/h (3 Bft) 97,87 %
08.05.2019 23:18 9,7 C 8,9 C 7,8 C 94 % 994,9 hPa 0,0 l/m 0 min 0 min 0 W/m 9,7 km/h (2 Bft) 100,00 %
08.05.2019 23:20 9,7 C 8,9 C 7,8 C 94 % 994,9 hPa 0,0 l/m 0 min 0 min 0 W/m 9,7 km/h (2 Bft) 97,87 %
08.05.2019 23:22 9,7 C 8,9 C 7,8 C 94 % 995,0 hPa 0,0 l/m 0 min 0 min 0 W/m 6,4 km/h (2 Bft) 97,87 %
08.05.2019 23:24 9,7 C 8,9 C 7,8 C 94 % 995,0 hPa 0,0 l/m 0 min 0 min 0 W/m 6,4 km/h (2 Bft) 97,87 %
08.05.2019 23:26 9,6 C 8,9 C 7,8 C 94 % 995,0 hPa 0,0 l/m 0 min 0 min 0 W/m 9,7 km/h (2 Bft) 97,87 %
08.05.2019 23:28 9,6 C 8,9 C 7,8 C 94 % 995,0 hPa 0,0 l/m 0 min 0 min 0 W/m 9,7 km/h (2 Bft) 97,87 %
08.05.2019 23:30 9,6 C 8,9 C 7,8 C 94 % 995,0 hPa 0,0 l/m 0 min 0 min 0 W/m 6,4 km/h (2 Bft) 95,65 %
08.05.2019 23:32 9,6 C 8,9 C 7,8 C 94 % 994,9 hPa 0,0 l/m 0 min 0 min 0 W/m 12,9 km/h (3 Bft) 91,49 %
08.05.2019 23:34 9,6 C 8,9 C 7,8 C 94 % 994,9 hPa 0,0 l/m 0 min 0 min 0 W/m 9,7 km/h (2 Bft) 97,87 %
08.05.2019 23:36 9,6 C 8,9 C 7,8 C 94 % 995,0 hPa 0,0 l/m 0 min 0 min 0 W/m 6,4 km/h (2 Bft) 96,61 %
08.05.2019 23:38 9,6 C 8,9 C 7,8 C 94 % 995,0 hPa 0,0 l/m 0 min 0 min 0 W/m 9,7 km/h (2 Bft) 94,29 %
08.05.2019 23:40 9,6 C 8,9 C 7,8 C 94 % 995,0 hPa 0,0 l/m 0 min 0 min 0 W/m 9,7 km/h (2 Bft) 95,74 %
08.05.2019 23:42 9,6 C 8,9 C 7,8 C 94 % 995,0 hPa 0,0 l/m 0 min 0 min 0 W/m 12,9 km/h (3 Bft) 95,65 %
08.05.2019 23:44 9,5 C 8,9 C 7,8 C 94 % 995,0 hPa 0,0 l/m 0 min 0 min 0 W/m 9,7 km/h (2 Bft) 95,74 %
08.05.2019 23:46 9,5 C 8,9 C 7,8 C 94 % 995,0 hPa 0,0 l/m 0 min 0 min 0 W/m 9,7 km/h (2 Bft) 95,74 %
08.05.2019 23:48 9,5 C 8,9 C 7,8 C 94 % 995,0 hPa 0,0 l/m 0 min 0 min 0 W/m 6,4 km/h (2 Bft) 95,74 %
08.05.2019 23:50 9,5 C 8,9 C 7,8 C 94 % 995,0 hPa 0,0 l/m 0 min 0 min 0 W/m 9,7 km/h (2 Bft) 93,62 %
08.05.2019 23:52 9,5 C 8,9 C 7,8 C 94 % 995,1 hPa 0,0 l/m 0 min 0 min 0 W/m 12,9 km/h (3 Bft) 95,65 %
08.05.2019 23:54 9,5 C 8,9 C 7,8 C 94 % 995,1 hPa 0,0 l/m 0 min 0 min 0 W/m 9,7 km/h (2 Bft) 95,74 %
08.05.2019 23:56 9,5 C 9,4 C 7,8 C 94 % 995,0 hPa 0,0 l/m 0 min 0 min 0 W/m 9,7 km/h (2 Bft) 95,74 %
08.05.2019 23:58 9,5 C 9,4 C 7,8 C 94 % 995,0 hPa 0,0 l/m 0 min 0 min 0 W/m 12,9 km/h (3 Bft) 95,74 %
_ Min-Zeit 00:24 00:00 00:00 09:06 18:58 - - - - 00:00 05:14
Minimum _ 6,0 C 5,0 C 3,9 C 71 % 993,6 hPa - - - - 0,0 km/h (0 Bft) 87,23 %
_ Max-Zeit 20:00 08:50 10:56 18:46 00:00 17:58 08:42 12:07 12:18 13:54 00:00
Maximum _ 12,0 C 12,8 C 12,2 C 97 % 1010,3 hPa 0,4 l/m 2 min 3 min 516 W/m 45,1 km/h
O (6 Bft)
100,00 %
Durchschnitt _ 9,8 C 9,3 C 8,7 C 86 % 1000,0 hPa #4,0 l/m #18 min. #4:42 h 128 W/m 14,1 km/h (3 Bft) 97,52 %
© 2019 W. Hausmann